<?xml version='1.0' encoding='UTF-8'?><gpx version="1.1" creator="JPX - https://github.com/jenetics/jpx" xmlns="http://www.topografix.com/GPX/1/1"><trk><trkseg><trkpt lat="43.7785455" lon="11.2007263"><ele>40.0</ele><time>2026-04-08T16:12:19.816Z</time></trkpt><trkpt lat="43.7786182" lon="11.2006933"><ele>40.0</ele><time>2026-04-08T16:12:26.917Z</time></trkpt><trkpt lat="43.778715" lon="11.2007283"><ele>40.0</ele><time>2026-04-08T16:12:28.916Z</time></trkpt><trkpt lat="43.7787767" lon="11.200815"><ele>40.0</ele><time>2026-04-08T16:12:30.916Z</time></trkpt><trkpt lat="43.778835" lon="11.2008817"><ele>40.0</ele><time>2026-04-08T16:12:32.916Z</time></trkpt><trkpt lat="43.778895" lon="11.2009383"><ele>40.0</ele><time>2026-04-08T16:12:34.917Z</time></trkpt><trkpt lat="43.7789517" lon="11.2009867"><ele>40.0</ele><time>2026-04-08T16:12:36.916Z</time></trkpt><trkpt lat="43.7790333" lon="11.201045"><ele>40.0</ele><time>2026-04-08T16:12:39.916Z</time></trkpt><trkpt lat="43.779105" lon="11.2011017"><ele>40.0</ele><time>2026-04-08T16:12:42.916Z</time></trkpt><trkpt lat="43.779175" lon="11.2011483"><ele>40.0</ele><time>2026-04-08T16:12:45.916Z</time></trkpt><trkpt lat="43.7792333" lon="11.2011817"><ele>40.0</ele><time>2026-04-08T16:12:48.916Z</time></trkpt><trkpt lat="43.7793" lon="11.2012217"><ele>40.0</ele><time>2026-04-08T16:12:51.917Z</time></trkpt><trkpt lat="43.7793767" lon="11.2012667"><ele>40.14285714285714</ele><time>2026-04-08T16:12:53.916Z</time></trkpt><trkpt lat="43.779445" lon="11.2013067"><ele>40.285714285714285</ele><time>2026-04-08T16:12:55.916Z</time></trkpt><trkpt lat="43.779505" lon="11.2013417"><ele>40.42857142857143</ele><time>2026-04-08T16:12:57.917Z</time></trkpt><trkpt lat="43.7795767" lon="11.2013833"><ele>40.57142857142857</ele><time>2026-04-08T16:12:59.916Z</time></trkpt><trkpt lat="43.779645" lon="11.2014233"><ele>40.714285714285715</ele><time>2026-04-08T16:13:02.917Z</time></trkpt><trkpt lat="43.779715" lon="11.201465"><ele>40.857142857142854</ele><time>2026-04-08T16:13:04.916Z</time></trkpt><trkpt lat="43.7797767" lon="11.2015"><ele>41.0</ele><time>2026-04-08T16:13:07.916Z</time></trkpt><trkpt lat="43.77985" lon="11.2015433"><ele>40.99999999999999</ele><time>2026-04-08T16:13:10.916Z</time></trkpt><trkpt lat="43.7799233" lon="11.20158"><ele>41.0</ele><time>2026-04-08T16:13:13.916Z</time></trkpt><trkpt lat="43.77999" lon="11.2016083"><ele>41.0</ele><time>2026-04-08T16:13:15.916Z</time></trkpt><trkpt lat="43.7800533" lon="11.2016067"><ele>41.0</ele><time>2026-04-08T16:13:26.916Z</time></trkpt><trkpt lat="43.780125" lon="11.20165"><ele>41.0</ele><time>2026-04-08T16:13:30.916Z</time></trkpt><trkpt lat="43.7801817" lon="11.201705"><ele>40.99999999999999</ele><time>2026-04-08T16:13:32.917Z</time></trkpt><trkpt lat="43.78024" lon="11.20175"><ele>41.0</ele><time>2026-04-08T16:13:34.916Z</time></trkpt><trkpt lat="43.7803083" lon="11.2018"><ele>40.666666666666664</ele><time>2026-04-08T16:13:36.917Z</time></trkpt><trkpt lat="43.7803683" lon="11.2018283"><ele>40.33333333333333</ele><time>2026-04-08T16:13:38.916Z</time></trkpt><trkpt lat="43.7804517" lon="11.2018817"><ele>40.0</ele><time>2026-04-08T16:13:41.916Z</time></trkpt><trkpt lat="43.7805367" lon="11.2019167"><ele>39.666666666666664</ele><time>2026-04-08T16:13:44.917Z</time></trkpt><trkpt lat="43.7806017" lon="11.201955"><ele>39.333333333333336</ele><time>2026-04-08T16:13:47.916Z</time></trkpt><trkpt lat="43.7806683" lon="11.20197"><ele>39.0</ele><time>2026-04-08T16:13:50.916Z</time></trkpt><trkpt lat="43.7807433" lon="11.2020117"><ele>39.0</ele><time>2026-04-08T16:13:53.917Z</time></trkpt><trkpt lat="43.78081" lon="11.2020483"><ele>39.0</ele><time>2026-04-08T16:13:56.916Z</time></trkpt><trkpt lat="43.7808733" lon="11.2020867"><ele>39.0</ele><time>2026-04-08T16:13:59.916Z</time></trkpt><trkpt lat="43.7809317" lon="11.20212"><ele>39.0</ele><time>2026-04-08T16:14:02.916Z</time></trkpt><trkpt lat="43.781005" lon="11.2021633"><ele>39.0</ele><time>2026-04-08T16:14:05.916Z</time></trkpt><trkpt lat="43.78107" lon="11.2022"><ele>39.0</ele><time>2026-04-08T16:14:08.917Z</time></trkpt><trkpt lat="43.7811267" lon="11.2022567"><ele>39.0</ele><time>2026-04-08T16:14:12.916Z</time></trkpt><trkpt lat="43.78119" lon="11.202315"><ele>39.0</ele><time>2026-04-08T16:14:15.916Z</time></trkpt><trkpt lat="43.7812433" lon="11.202385"><ele>39.0</ele><time>2026-04-08T16:14:18.916Z</time></trkpt><trkpt lat="43.7813033" lon="11.202425"><ele>39.0</ele><time>2026-04-08T16:14:20.916Z</time></trkpt><trkpt lat="43.7813617" lon="11.202465"><ele>39.0</ele><time>2026-04-08T16:14:22.916Z</time></trkpt><trkpt lat="43.7814367" lon="11.2025133"><ele>39.0</ele><time>2026-04-08T16:14:25.916Z</time></trkpt><trkpt lat="43.781495" lon="11.20255"><ele>39.0</ele><time>2026-04-08T16:14:27.916Z</time></trkpt><trkpt lat="43.78158" lon="11.202535"><ele>39.0</ele><time>2026-04-08T16:14:30.916Z</time></trkpt><trkpt lat="43.7816667" lon="11.2025533"><ele>39.0</ele><time>2026-04-08T16:14:32.916Z</time></trkpt><trkpt lat="43.781765" lon="11.2025933"><ele>39.0</ele><time>2026-04-08T16:14:34.916Z</time></trkpt><trkpt lat="43.7818717" lon="11.2026283"><ele>39.0</ele><time>2026-04-08T16:14:37.917Z</time></trkpt><trkpt lat="43.78195" lon="11.20264"><ele>39.0</ele><time>2026-04-08T16:14:39.916Z</time></trkpt><trkpt lat="43.7820167" lon="11.2026783"><ele>39.0</ele><time>2026-04-08T16:14:41.916Z</time></trkpt><trkpt lat="43.7820833" lon="11.202715"><ele>39.0</ele><time>2026-04-08T16:14:43.916Z</time></trkpt><trkpt lat="43.7821433" lon="11.2027467"><ele>38.833333333333336</ele><time>2026-04-08T16:14:45.917Z</time></trkpt><trkpt lat="43.782215" lon="11.2028067"><ele>38.666666666666664</ele><time>2026-04-08T16:14:48.916Z</time></trkpt><trkpt lat="43.782235" lon="11.2029067"><ele>38.5</ele><time>2026-04-08T16:14:51.916Z</time></trkpt><trkpt lat="43.7822183" lon="11.203015"><ele>38.33333333333333</ele><time>2026-04-08T16:14:54.916Z</time></trkpt><trkpt lat="43.782185" lon="11.2031367"><ele>38.166666666666664</ele><time>2026-04-08T16:14:57.916Z</time></trkpt><trkpt lat="43.7821533" lon="11.20325"><ele>38.0</ele><time>2026-04-08T16:15:00.916Z</time></trkpt><trkpt lat="43.7821433" lon="11.2033467"><ele>38.0</ele><time>2026-04-08T16:15:03.916Z</time></trkpt><trkpt lat="43.7821467" lon="11.2034533"><ele>38.0</ele><time>2026-04-08T16:15:06.917Z</time></trkpt><trkpt lat="43.7821283" lon="11.20355"><ele>38.0</ele><time>2026-04-08T16:15:10.916Z</time></trkpt><trkpt lat="43.7821117" lon="11.2036767"><ele>38.0</ele><time>2026-04-08T16:15:14.916Z</time></trkpt><trkpt lat="43.782095" lon="11.2037967"><ele>38.0</ele><time>2026-04-08T16:15:17.917Z</time></trkpt><trkpt lat="43.7820717" lon="11.2039233"><ele>38.0</ele><time>2026-04-08T16:15:20.916Z</time></trkpt><trkpt lat="43.7820567" lon="11.2040133"><ele>38.166666666666664</ele><time>2026-04-08T16:15:23.916Z</time></trkpt><trkpt lat="43.7820317" lon="11.2041283"><ele>38.33333333333333</ele><time>2026-04-08T16:15:27.916Z</time></trkpt><trkpt lat="43.7820083" lon="11.2042183"><ele>38.5</ele><time>2026-04-08T16:15:29.917Z</time></trkpt><trkpt lat="43.7819967" lon="11.2043183"><ele>38.666666666666664</ele><time>2026-04-08T16:15:32.916Z</time></trkpt><trkpt lat="43.7820083" lon="11.2044283"><ele>38.833333333333336</ele><time>2026-04-08T16:15:37.916Z</time></trkpt><trkpt lat="43.782045" lon="11.2045333"><ele>39.0</ele><time>2026-04-08T16:15:40.917Z</time></trkpt><trkpt lat="43.782055" lon="11.2046633"><ele>39.0</ele><time>2026-04-08T16:15:43.916Z</time></trkpt><trkpt lat="43.7820417" lon="11.204765"><ele>39.0</ele><time>2026-04-08T16:15:46.916Z</time></trkpt><trkpt lat="43.7821083" lon="11.2047617"><ele>39.0</ele><time>2026-04-08T16:15:51.916Z</time></trkpt><trkpt lat="43.7821367" lon="11.2046517"><ele>39.0</ele><time>2026-04-08T16:15:53.917Z</time></trkpt><trkpt lat="43.7821533" lon="11.2045267"><ele>39.0</ele><time>2026-04-08T16:15:55.917Z</time></trkpt><trkpt lat="43.7821733" lon="11.20439"><ele>39.0</ele><time>2026-04-08T16:15:57.916Z</time></trkpt><trkpt lat="43.7821917" lon="11.2042717"><ele>39.0</ele><time>2026-04-08T16:15:59.916Z</time></trkpt><trkpt lat="43.782205" lon="11.2041483"><ele>39.0</ele><time>2026-04-08T16:16:01.916Z</time></trkpt><trkpt lat="43.7822417" lon="11.2040367"><ele>39.0</ele><time>2026-04-08T16:16:03.916Z</time></trkpt><trkpt lat="43.7822883" lon="11.2039383"><ele>39.0</ele><time>2026-04-08T16:16:05.916Z</time></trkpt><trkpt lat="43.782345" lon="11.203885"><ele>39.0</ele><time>2026-04-08T16:16:07.916Z</time></trkpt><trkpt lat="43.782425" lon="11.2038767"><ele>39.0</ele><time>2026-04-08T16:16:09.916Z</time></trkpt><trkpt lat="43.7825117" lon="11.203905"><ele>38.833333333333336</ele><time>2026-04-08T16:16:11.917Z</time></trkpt><trkpt lat="43.7825733" lon="11.2039667"><ele>38.666666666666664</ele><time>2026-04-08T16:16:13.916Z</time></trkpt><trkpt lat="43.7826383" lon="11.20399"><ele>38.5</ele><time>2026-04-08T16:16:15.917Z</time></trkpt><trkpt lat="43.782705" lon="11.2040183"><ele>38.33333333333333</ele><time>2026-04-08T16:16:17.916Z</time></trkpt><trkpt lat="43.7827767" lon="11.204065"><ele>38.166666666666664</ele><time>2026-04-08T16:16:19.916Z</time></trkpt><trkpt lat="43.782855" lon="11.2041017"><ele>38.0</ele><time>2026-04-08T16:16:21.916Z</time></trkpt><trkpt lat="43.7829333" lon="11.2041267"><ele>38.33333333333333</ele><time>2026-04-08T16:16:23.917Z</time></trkpt><trkpt lat="43.7830117" lon="11.2041567"><ele>38.666666666666664</ele><time>2026-04-08T16:16:25.916Z</time></trkpt><trkpt lat="43.7830983" lon="11.20418"><ele>39.0</ele><time>2026-04-08T16:16:27.916Z</time></trkpt><trkpt lat="43.783195" lon="11.2041967"><ele>39.333333333333336</ele><time>2026-04-08T16:16:29.917Z</time></trkpt><trkpt lat="43.7832683" lon="11.2042033"><ele>39.66666666666667</ele><time>2026-04-08T16:16:31.916Z</time></trkpt><trkpt lat="43.78335" lon="11.2042317"><ele>40.0</ele><time>2026-04-08T16:16:33.916Z</time></trkpt><trkpt lat="43.78343" lon="11.2042683"><ele>40.0</ele><time>2026-04-08T16:16:35.916Z</time></trkpt><trkpt lat="43.78351" lon="11.20431"><ele>40.0</ele><time>2026-04-08T16:16:37.916Z</time></trkpt><trkpt lat="43.7835883" lon="11.20434"><ele>40.0</ele><time>2026-04-08T16:16:39.916Z</time></trkpt><trkpt lat="43.7836533" lon="11.204365"><ele>40.0</ele><time>2026-04-08T16:16:41.916Z</time></trkpt><trkpt lat="43.78372" lon="11.2043867"><ele>40.0</ele><time>2026-04-08T16:16:43.916Z</time></trkpt><trkpt lat="43.7837867" lon="11.2044117"><ele>40.0</ele><time>2026-04-08T16:16:45.916Z</time></trkpt><trkpt lat="43.7838583" lon="11.2044383"><ele>40.0</ele><time>2026-04-08T16:16:47.917Z</time></trkpt><trkpt lat="43.7839233" lon="11.2044617"><ele>40.0</ele><time>2026-04-08T16:16:49.917Z</time></trkpt><trkpt lat="43.7840033" lon="11.2044867"><ele>40.0</ele><time>2026-04-08T16:16:52.916Z</time></trkpt><trkpt lat="43.7840783" lon="11.2045083"><ele>40.0</ele><time>2026-04-08T16:16:55.917Z</time></trkpt><trkpt lat="43.7841617" lon="11.20455"><ele>40.0</ele><time>2026-04-08T16:16:58.916Z</time></trkpt><trkpt lat="43.784225" lon="11.2045683"><ele>40.0</ele><time>2026-04-08T16:17:00.916Z</time></trkpt><trkpt lat="43.784305" lon="11.2045983"><ele>40.0</ele><time>2026-04-08T16:17:02.916Z</time></trkpt><trkpt lat="43.7843717" lon="11.204635"><ele>40.0</ele><time>2026-04-08T16:17:04.916Z</time></trkpt><trkpt lat="43.7844617" lon="11.204665"><ele>40.0</ele><time>2026-04-08T16:17:07.916Z</time></trkpt><trkpt lat="43.7845333" lon="11.2046983"><ele>40.0</ele><time>2026-04-08T16:17:09.917Z</time></trkpt><trkpt lat="43.7846133" lon="11.204735"><ele>40.0</ele><time>2026-04-08T16:17:12.916Z</time></trkpt><trkpt lat="43.78469" lon="11.204755"><ele>40.0</ele><time>2026-04-08T16:17:16.917Z</time></trkpt><trkpt lat="43.7847883" lon="11.204795"><ele>40.0</ele><time>2026-04-08T16:17:19.916Z</time></trkpt><trkpt lat="43.7848583" lon="11.204825"><ele>39.833333333333336</ele><time>2026-04-08T16:17:21.917Z</time></trkpt><trkpt lat="43.78493" lon="11.2048567"><ele>39.66666666666667</ele><time>2026-04-08T16:17:23.916Z</time></trkpt><trkpt lat="43.7850083" lon="11.20489"><ele>39.5</ele><time>2026-04-08T16:17:25.916Z</time></trkpt><trkpt lat="43.78505" lon="11.204985"><ele>39.333333333333336</ele><time>2026-04-08T16:17:28.916Z</time></trkpt><trkpt lat="43.785035" lon="11.2050933"><ele>39.166666666666664</ele><time>2026-04-08T16:17:31.916Z</time></trkpt><trkpt lat="43.7850067" lon="11.2051933"><ele>39.0</ele><time>2026-04-08T16:17:34.916Z</time></trkpt><trkpt lat="43.7849567" lon="11.2052983"><ele>39.0</ele><time>2026-04-08T16:17:37.916Z</time></trkpt><trkpt lat="43.7849067" lon="11.2053917"><ele>39.0</ele><time>2026-04-08T16:17:40.916Z</time></trkpt><trkpt lat="43.78486" lon="11.2055017"><ele>39.0</ele><time>2026-04-08T16:17:43.916Z</time></trkpt><trkpt lat="43.7848267" lon="11.20558"><ele>39.0</ele><time>2026-04-08T16:17:45.917Z</time></trkpt><trkpt lat="43.78478" lon="11.2056883"><ele>39.0</ele><time>2026-04-08T16:17:48.916Z</time></trkpt><trkpt lat="43.7847333" lon="11.2058"><ele>39.0</ele><time>2026-04-08T16:17:51.917Z</time></trkpt><trkpt lat="43.7847" lon="11.2058767"><ele>39.166666666666664</ele><time>2026-04-08T16:17:53.917Z</time></trkpt><trkpt lat="43.7846567" lon="11.2059917"><ele>39.333333333333336</ele><time>2026-04-08T16:17:56.916Z</time></trkpt><trkpt lat="43.7846167" lon="11.2060717"><ele>39.5</ele><time>2026-04-08T16:17:58.916Z</time></trkpt><trkpt lat="43.78457" lon="11.2061483"><ele>39.66666666666667</ele><time>2026-04-08T16:18:00.917Z</time></trkpt><trkpt lat="43.7845233" lon="11.20623"><ele>39.833333333333336</ele><time>2026-04-08T16:18:02.916Z</time></trkpt><trkpt lat="43.7844867" lon="11.2063083"><ele>40.0</ele><time>2026-04-08T16:18:04.917Z</time></trkpt><trkpt lat="43.7844467" lon="11.2063917"><ele>40.0</ele><time>2026-04-08T16:18:06.917Z</time></trkpt><trkpt lat="43.7844083" lon="11.2064717"><ele>40.0</ele><time>2026-04-08T16:18:08.916Z</time></trkpt><trkpt lat="43.7843717" lon="11.2065483"><ele>40.0</ele><time>2026-04-08T16:18:10.916Z</time></trkpt><trkpt lat="43.7843233" lon="11.206635"><ele>40.0</ele><time>2026-04-08T16:18:12.916Z</time></trkpt><trkpt lat="43.78428" lon="11.2067217"><ele>40.0</ele><time>2026-04-08T16:18:14.916Z</time></trkpt><trkpt lat="43.7842333" lon="11.2068083"><ele>40.0</ele><time>2026-04-08T16:18:16.916Z</time></trkpt><trkpt lat="43.7841817" lon="11.2069"><ele>40.0</ele><time>2026-04-08T16:18:18.916Z</time></trkpt><trkpt lat="43.7841483" lon="11.2069833"><ele>40.0</ele><time>2026-04-08T16:18:20.916Z</time></trkpt><trkpt lat="43.7841" lon="11.2070883"><ele>40.0</ele><time>2026-04-08T16:18:22.917Z</time></trkpt><trkpt lat="43.7840533" lon="11.2072"><ele>40.0</ele><time>2026-04-08T16:18:25.916Z</time></trkpt><trkpt lat="43.78402" lon="11.20728"><ele>40.0</ele><time>2026-04-08T16:18:27.916Z</time></trkpt><trkpt lat="43.78398" lon="11.2073633"><ele>40.0</ele><time>2026-04-08T16:18:29.916Z</time></trkpt><trkpt lat="43.783935" lon="11.207445"><ele>39.714285714285715</ele><time>2026-04-08T16:18:31.916Z</time></trkpt><trkpt lat="43.7838933" lon="11.207525"><ele>39.42857142857143</ele><time>2026-04-08T16:18:33.916Z</time></trkpt><trkpt lat="43.783845" lon="11.20761"><ele>39.14285714285714</ele><time>2026-04-08T16:18:35.916Z</time></trkpt><trkpt lat="43.7838083" lon="11.2076983"><ele>38.85714285714286</ele><time>2026-04-08T16:18:37.916Z</time></trkpt><trkpt lat="43.7837667" lon="11.2077817"><ele>38.57142857142858</ele><time>2026-04-08T16:18:39.916Z</time></trkpt><trkpt lat="43.7837283" lon="11.2078583"><ele>38.285714285714285</ele><time>2026-04-08T16:18:41.916Z</time></trkpt><trkpt lat="43.783685" lon="11.207945"><ele>38.0</ele><time>2026-04-08T16:18:43.916Z</time></trkpt><trkpt lat="43.7836483" lon="11.2080333"><ele>38.0</ele><time>2026-04-08T16:18:45.917Z</time></trkpt><trkpt lat="43.7835967" lon="11.20813"><ele>38.0</ele><time>2026-04-08T16:18:47.916Z</time></trkpt><trkpt lat="43.783545" lon="11.2082383"><ele>38.0</ele><time>2026-04-08T16:18:49.916Z</time></trkpt><trkpt lat="43.7834933" lon="11.2083367"><ele>38.0</ele><time>2026-04-08T16:18:51.916Z</time></trkpt><trkpt lat="43.7834467" lon="11.2084467"><ele>38.0</ele><time>2026-04-08T16:18:54.916Z</time></trkpt><trkpt lat="43.7833983" lon="11.2085433"><ele>38.0</ele><time>2026-04-08T16:18:57.917Z</time></trkpt><trkpt lat="43.7833567" lon="11.20863"><ele>38.166666666666664</ele><time>2026-04-08T16:19:00.917Z</time></trkpt><trkpt lat="43.7833133" lon="11.2087167"><ele>38.33333333333333</ele><time>2026-04-08T16:19:03.915Z</time></trkpt><trkpt lat="43.7832717" lon="11.2088117"><ele>38.5</ele><time>2026-04-08T16:19:06.915Z</time></trkpt><trkpt lat="43.783235" lon="11.2088833"><ele>38.666666666666664</ele><time>2026-04-08T16:19:08.915Z</time></trkpt><trkpt lat="43.7831883" lon="11.208985"><ele>38.833333333333336</ele><time>2026-04-08T16:19:11.915Z</time></trkpt><trkpt lat="43.7831517" lon="11.2091033"><ele>39.0</ele><time>2026-04-08T16:19:14.916Z</time></trkpt><trkpt lat="43.7831083" lon="11.2091983"><ele>39.0</ele><time>2026-04-08T16:19:17.915Z</time></trkpt><trkpt lat="43.7830667" lon="11.20929"><ele>39.0</ele><time>2026-04-08T16:19:19.915Z</time></trkpt><trkpt lat="43.7830283" lon="11.2093767"><ele>39.0</ele><time>2026-04-08T16:19:21.915Z</time></trkpt><trkpt lat="43.7829767" lon="11.2094633"><ele>39.0</ele><time>2026-04-08T16:19:23.915Z</time></trkpt><trkpt lat="43.7829317" lon="11.2095433"><ele>39.0</ele><time>2026-04-08T16:19:25.915Z</time></trkpt><trkpt lat="43.7828817" lon="11.2096633"><ele>39.0</ele><time>2026-04-08T16:19:28.915Z</time></trkpt><trkpt lat="43.7828317" lon="11.2097717"><ele>39.166666666666664</ele><time>2026-04-08T16:19:30.915Z</time></trkpt><trkpt lat="43.782785" lon="11.2098783"><ele>39.333333333333336</ele><time>2026-04-08T16:19:32.915Z</time></trkpt><trkpt lat="43.7827383" lon="11.2099833"><ele>39.5</ele><time>2026-04-08T16:19:34.915Z</time></trkpt><trkpt lat="43.7826883" lon="11.21009"><ele>39.66666666666667</ele><time>2026-04-08T16:19:36.915Z</time></trkpt><trkpt lat="43.7826267" lon="11.2101967"><ele>39.833333333333336</ele><time>2026-04-08T16:19:38.915Z</time></trkpt><trkpt lat="43.7825817" lon="11.2102783"><ele>40.0</ele><time>2026-04-08T16:19:40.915Z</time></trkpt><trkpt lat="43.7825367" lon="11.2103633"><ele>40.0</ele><time>2026-04-08T16:19:42.916Z</time></trkpt><trkpt lat="43.7824983" lon="11.2104617"><ele>40.0</ele><time>2026-04-08T16:19:44.916Z</time></trkpt><trkpt lat="43.7824617" lon="11.21056"><ele>40.0</ele><time>2026-04-08T16:19:46.916Z</time></trkpt><trkpt lat="43.7824217" lon="11.2106583"><ele>40.0</ele><time>2026-04-08T16:19:48.915Z</time></trkpt><trkpt lat="43.7823833" lon="11.2107583"><ele>40.0</ele><time>2026-04-08T16:19:50.916Z</time></trkpt><trkpt lat="43.7823367" lon="11.2108467"><ele>40.0</ele><time>2026-04-08T16:19:52.915Z</time></trkpt><trkpt lat="43.7822983" lon="11.2109233"><ele>39.5</ele><time>2026-04-08T16:19:54.915Z</time></trkpt><trkpt lat="43.7822567" lon="11.21103"><ele>39.0</ele><time>2026-04-08T16:19:57.915Z</time></trkpt><trkpt lat="43.7822167" lon="11.2111167"><ele>38.5</ele><time>2026-04-08T16:19:59.915Z</time></trkpt><trkpt lat="43.78217" lon="11.21122"><ele>38.0</ele><time>2026-04-08T16:20:01.915Z</time></trkpt><trkpt lat="43.7821233" lon="11.211305"><ele>37.5</ele><time>2026-04-08T16:20:03.915Z</time></trkpt><trkpt lat="43.7820783" lon="11.211375"><ele>37.0</ele><time>2026-04-08T16:20:05.915Z</time></trkpt><trkpt lat="43.78204" lon="11.21147"><ele>37.142857142857146</ele><time>2026-04-08T16:20:08.915Z</time></trkpt><trkpt lat="43.781995" lon="11.21157"><ele>37.285714285714285</ele><time>2026-04-08T16:20:11.916Z</time></trkpt><trkpt lat="43.7819633" lon="11.2116483"><ele>37.42857142857143</ele><time>2026-04-08T16:20:13.915Z</time></trkpt><trkpt lat="43.7819233" lon="11.211735"><ele>37.57142857142857</ele><time>2026-04-08T16:20:15.916Z</time></trkpt><trkpt lat="43.7818933" lon="11.2118217"><ele>37.714285714285715</ele><time>2026-04-08T16:20:17.915Z</time></trkpt><trkpt lat="43.78187" lon="11.211915"><ele>37.857142857142854</ele><time>2026-04-08T16:20:19.915Z</time></trkpt><trkpt lat="43.7818367" lon="11.2119933"><ele>38.0</ele><time>2026-04-08T16:20:21.915Z</time></trkpt><trkpt lat="43.7818167" lon="11.2120767"><ele>38.0</ele><time>2026-04-08T16:20:23.916Z</time></trkpt><trkpt lat="43.7818283" lon="11.2121767"><ele>38.0</ele><time>2026-04-08T16:20:25.915Z</time></trkpt><trkpt lat="43.7818467" lon="11.2122683"><ele>38.0</ele><time>2026-04-08T16:20:27.915Z</time></trkpt><trkpt lat="43.7818483" lon="11.21238"><ele>38.0</ele><time>2026-04-08T16:20:30.915Z</time></trkpt><trkpt lat="43.781825" lon="11.2124767"><ele>38.0</ele><time>2026-04-08T16:20:33.916Z</time></trkpt><trkpt lat="43.781785" lon="11.2125467"><ele>38.0</ele><time>2026-04-08T16:20:36.915Z</time></trkpt><trkpt lat="43.7817417" lon="11.2126183"><ele>38.0</ele><time>2026-04-08T16:20:39.915Z</time></trkpt><trkpt lat="43.7817117" lon="11.2126967"><ele>38.14285714285714</ele><time>2026-04-08T16:20:42.915Z</time></trkpt><trkpt lat="43.7816917" lon="11.2127867"><ele>38.28571428571429</ele><time>2026-04-08T16:20:45.915Z</time></trkpt><trkpt lat="43.781665" lon="11.2128683"><ele>38.42857142857143</ele><time>2026-04-08T16:20:48.915Z</time></trkpt><trkpt lat="43.7816267" lon="11.2129467"><ele>38.57142857142857</ele><time>2026-04-08T16:20:51.915Z</time></trkpt><trkpt lat="43.7815867" lon="11.2130317"><ele>38.71428571428571</ele><time>2026-04-08T16:20:54.916Z</time></trkpt><trkpt lat="43.7815333" lon="11.2131083"><ele>38.85714285714286</ele><time>2026-04-08T16:20:57.916Z</time></trkpt><trkpt lat="43.78149" lon="11.2131917"><ele>39.0</ele><time>2026-04-08T16:21:00.915Z</time></trkpt><trkpt lat="43.7814517" lon="11.213295"><ele>38.5</ele><time>2026-04-08T16:21:03.916Z</time></trkpt><trkpt lat="43.7814167" lon="11.2133767"><ele>38.0</ele><time>2026-04-08T16:21:05.915Z</time></trkpt><trkpt lat="43.7813833" lon="11.2134517"><ele>37.5</ele><time>2026-04-08T16:21:07.915Z</time></trkpt><trkpt lat="43.7813367" lon="11.2135617"><ele>37.0</ele><time>2026-04-08T16:21:10.916Z</time></trkpt><trkpt lat="43.781285" lon="11.2136667"><ele>36.5</ele><time>2026-04-08T16:21:13.915Z</time></trkpt><trkpt lat="43.78124" lon="11.2137617"><ele>36.0</ele><time>2026-04-08T16:21:16.915Z</time></trkpt><trkpt lat="43.7811867" lon="11.2138567"><ele>36.0</ele><time>2026-04-08T16:21:19.915Z</time></trkpt><trkpt lat="43.7811283" lon="11.2139467"><ele>36.0</ele><time>2026-04-08T16:21:22.915Z</time></trkpt><trkpt lat="43.7810717" lon="11.2140367"><ele>36.0</ele><time>2026-04-08T16:21:25.915Z</time></trkpt><trkpt lat="43.78102" lon="11.214105"><ele>36.0</ele><time>2026-04-08T16:21:27.916Z</time></trkpt><trkpt lat="43.7809817" lon="11.21418"><ele>36.0</ele><time>2026-04-08T16:21:29.915Z</time></trkpt><trkpt lat="43.7809383" lon="11.2142667"><ele>36.0</ele><time>2026-04-08T16:21:31.915Z</time></trkpt><trkpt lat="43.7808983" lon="11.2143617"><ele>36.5</ele><time>2026-04-08T16:21:33.915Z</time></trkpt><trkpt lat="43.780865" lon="11.2144433"><ele>37.0</ele><time>2026-04-08T16:21:35.915Z</time></trkpt><trkpt lat="43.7808283" lon="11.2145367"><ele>37.5</ele><time>2026-04-08T16:21:37.915Z</time></trkpt><trkpt lat="43.7807867" lon="11.2146217"><ele>38.0</ele><time>2026-04-08T16:21:39.915Z</time></trkpt><trkpt lat="43.7807417" lon="11.2147267"><ele>38.5</ele><time>2026-04-08T16:21:41.915Z</time></trkpt><trkpt lat="43.7807033" lon="11.214825"><ele>39.0</ele><time>2026-04-08T16:21:43.915Z</time></trkpt><trkpt lat="43.7806617" lon="11.214925"><ele>39.0</ele><time>2026-04-08T16:21:45.915Z</time></trkpt><trkpt lat="43.780615" lon="11.2150167"><ele>39.0</ele><time>2026-04-08T16:21:47.915Z</time></trkpt><trkpt lat="43.7805583" lon="11.215125"><ele>39.0</ele><time>2026-04-08T16:21:49.915Z</time></trkpt><trkpt lat="43.780505" lon="11.2152217"><ele>39.0</ele><time>2026-04-08T16:21:51.916Z</time></trkpt><trkpt lat="43.780465" lon="11.2153217"><ele>39.0</ele><time>2026-04-08T16:21:53.915Z</time></trkpt><trkpt lat="43.7804283" lon="11.2154167"><ele>39.0</ele><time>2026-04-08T16:21:55.916Z</time></trkpt><trkpt lat="43.7804" lon="11.2155017"><ele>39.0</ele><time>2026-04-08T16:21:57.916Z</time></trkpt><trkpt lat="43.7803567" lon="11.2155983"><ele>39.0</ele><time>2026-04-08T16:21:59.915Z</time></trkpt><trkpt lat="43.7803117" lon="11.215695"><ele>39.0</ele><time>2026-04-08T16:22:01.916Z</time></trkpt><trkpt lat="43.78027" lon="11.2158"><ele>39.0</ele><time>2026-04-08T16:22:03.915Z</time></trkpt><trkpt lat="43.780225" lon="11.2159"><ele>39.0</ele><time>2026-04-08T16:22:05.916Z</time></trkpt><trkpt lat="43.7801817" lon="11.216"><ele>39.0</ele><time>2026-04-08T16:22:07.915Z</time></trkpt><trkpt lat="43.780145" lon="11.2160933"><ele>39.333333333333336</ele><time>2026-04-08T16:22:09.915Z</time></trkpt><trkpt lat="43.7801033" lon="11.2161933"><ele>39.666666666666664</ele><time>2026-04-08T16:22:11.915Z</time></trkpt><trkpt lat="43.78006" lon="11.2163117"><ele>40.0</ele><time>2026-04-08T16:22:14.916Z</time></trkpt><trkpt lat="43.7800233" lon="11.216405"><ele>40.33333333333333</ele><time>2026-04-08T16:22:16.916Z</time></trkpt><trkpt lat="43.7799883" lon="11.2165"><ele>40.666666666666664</ele><time>2026-04-08T16:22:18.915Z</time></trkpt><trkpt lat="43.779955" lon="11.2165983"><ele>41.0</ele><time>2026-04-08T16:22:20.915Z</time></trkpt><trkpt lat="43.7799233" lon="11.2167033"><ele>41.0</ele><time>2026-04-08T16:22:22.915Z</time></trkpt><trkpt lat="43.7798767" lon="11.2168083"><ele>41.0</ele><time>2026-04-08T16:22:24.915Z</time></trkpt><trkpt lat="43.7798517" lon="11.216895"><ele>41.0</ele><time>2026-04-08T16:22:26.915Z</time></trkpt><trkpt lat="43.779835" lon="11.2169833"><ele>41.0</ele><time>2026-04-08T16:22:28.915Z</time></trkpt><trkpt lat="43.7798483" lon="11.2170917"><ele>41.0</ele><time>2026-04-08T16:22:31.915Z</time></trkpt><trkpt lat="43.7798317" lon="11.2171917"><ele>41.0</ele><time>2026-04-08T16:22:33.915Z</time></trkpt><trkpt lat="43.7798" lon="11.2173"><ele>40.83333333333333</ele><time>2026-04-08T16:22:35.916Z</time></trkpt><trkpt lat="43.7797517" lon="11.2174267"><ele>40.666666666666664</ele><time>2026-04-08T16:22:37.915Z</time></trkpt><trkpt lat="43.7797117" lon="11.217525"><ele>40.5</ele><time>2026-04-08T16:22:39.915Z</time></trkpt><trkpt lat="43.779665" lon="11.2176167"><ele>40.333333333333336</ele><time>2026-04-08T16:22:41.915Z</time></trkpt><trkpt lat="43.7796083" lon="11.217695"><ele>40.16666666666667</ele><time>2026-04-08T16:22:43.916Z</time></trkpt><trkpt lat="43.7795517" lon="11.2177683"><ele>40.0</ele><time>2026-04-08T16:22:45.915Z</time></trkpt><trkpt lat="43.779505" lon="11.2178583"><ele>40.0</ele><time>2026-04-08T16:22:47.916Z</time></trkpt><trkpt lat="43.7794833" lon="11.2179633"><ele>40.0</ele><time>2026-04-08T16:22:49.916Z</time></trkpt><trkpt lat="43.7794833" lon="11.21807"><ele>40.0</ele><time>2026-04-08T16:22:51.915Z</time></trkpt><trkpt lat="43.7794667" lon="11.2181633"><ele>40.0</ele><time>2026-04-08T16:22:53.915Z</time></trkpt><trkpt lat="43.77944" lon="11.2182533"><ele>40.0</ele><time>2026-04-08T16:22:55.915Z</time></trkpt><trkpt lat="43.779395" lon="11.2183267"><ele>40.0</ele><time>2026-04-08T16:22:57.915Z</time></trkpt><trkpt lat="43.7793417" lon="11.2184117"><ele>40.0</ele><time>2026-04-08T16:22:59.915Z</time></trkpt><trkpt lat="43.77931" lon="11.2185033"><ele>40.16666666666667</ele><time>2026-04-08T16:23:01.915Z</time></trkpt><trkpt lat="43.7792883" lon="11.2185917"><ele>40.333333333333336</ele><time>2026-04-08T16:23:03.915Z</time></trkpt><trkpt lat="43.7792133" lon="11.21866"><ele>40.5</ele><time>2026-04-08T16:23:06.915Z</time></trkpt><trkpt lat="43.7791583" lon="11.2187133"><ele>40.666666666666664</ele><time>2026-04-08T16:23:08.915Z</time></trkpt><trkpt lat="43.77911" lon="11.2188167"><ele>40.83333333333333</ele><time>2026-04-08T16:23:11.915Z</time></trkpt><trkpt lat="43.7790683" lon="11.2189383"><ele>41.0</ele><time>2026-04-08T16:23:14.916Z</time></trkpt><trkpt lat="43.7790383" lon="11.2190217"><ele>41.0</ele><time>2026-04-08T16:23:16.915Z</time></trkpt><trkpt lat="43.7790083" lon="11.21913"><ele>41.0</ele><time>2026-04-08T16:23:18.915Z</time></trkpt><trkpt lat="43.778975" lon="11.2192283"><ele>41.0</ele><time>2026-04-08T16:23:20.915Z</time></trkpt><trkpt lat="43.77893" lon="11.2193267"><ele>41.0</ele><time>2026-04-08T16:23:22.915Z</time></trkpt><trkpt lat="43.77889" lon="11.21943"><ele>41.0</ele><time>2026-04-08T16:23:24.916Z</time></trkpt><trkpt lat="43.7788617" lon="11.219515"><ele>41.0</ele><time>2026-04-08T16:23:26.915Z</time></trkpt><trkpt lat="43.7788267" lon="11.2196167"><ele>41.0</ele><time>2026-04-08T16:23:28.915Z</time></trkpt><trkpt lat="43.7787883" lon="11.2197233"><ele>41.0</ele><time>2026-04-08T16:23:30.915Z</time></trkpt><trkpt lat="43.7787517" lon="11.2198333"><ele>41.0</ele><time>2026-04-08T16:23:32.915Z</time></trkpt><trkpt lat="43.7787133" lon="11.2199433"><ele>41.0</ele><time>2026-04-08T16:23:34.915Z</time></trkpt><trkpt lat="43.77868" lon="11.220035"><ele>41.0</ele><time>2026-04-08T16:23:36.916Z</time></trkpt><trkpt lat="43.7786333" lon="11.2201533"><ele>41.0</ele><time>2026-04-08T16:23:38.915Z</time></trkpt><trkpt lat="43.7785917" lon="11.2202533"><ele>41.166666666666664</ele><time>2026-04-08T16:23:40.916Z</time></trkpt><trkpt lat="43.778545" lon="11.2203533"><ele>41.33333333333333</ele><time>2026-04-08T16:23:42.915Z</time></trkpt><trkpt lat="43.7785117" lon="11.2204483"><ele>41.5</ele><time>2026-04-08T16:23:44.915Z</time></trkpt><trkpt lat="43.778465" lon="11.2205483"><ele>41.666666666666664</ele><time>2026-04-08T16:23:46.915Z</time></trkpt><trkpt lat="43.77843" lon="11.2206433"><ele>41.833333333333336</ele><time>2026-04-08T16:23:48.915Z</time></trkpt><trkpt lat="43.778385" lon="11.220775"><ele>42.0</ele><time>2026-04-08T16:23:51.915Z</time></trkpt><trkpt lat="43.7783567" lon="11.220865"><ele>42.666666666666664</ele><time>2026-04-08T16:23:53.915Z</time></trkpt><trkpt lat="43.77831" lon="11.2209867"><ele>43.333333333333336</ele><time>2026-04-08T16:23:55.915Z</time></trkpt><trkpt lat="43.7782717" lon="11.2210767"><ele>44.0</ele><time>2026-04-08T16:23:57.915Z</time></trkpt><trkpt lat="43.778225" lon="11.2211783"><ele>44.66666666666667</ele><time>2026-04-08T16:23:59.916Z</time></trkpt><trkpt lat="43.77818" lon="11.2212733"><ele>45.333333333333336</ele><time>2026-04-08T16:24:01.915Z</time></trkpt><trkpt lat="43.7781433" lon="11.2213633"><ele>46.0</ele><time>2026-04-08T16:24:03.915Z</time></trkpt><trkpt lat="43.7781167" lon="11.2214583"><ele>46.0</ele><time>2026-04-08T16:24:05.915Z</time></trkpt><trkpt lat="43.7780817" lon="11.2215717"><ele>46.0</ele><time>2026-04-08T16:24:08.916Z</time></trkpt><trkpt lat="43.77806" lon="11.2216967"><ele>46.0</ele><time>2026-04-08T16:24:11.915Z</time></trkpt><trkpt lat="43.7780667" lon="11.22182"><ele>46.0</ele><time>2026-04-08T16:24:14.915Z</time></trkpt><trkpt lat="43.7780317" lon="11.2219217"><ele>46.0</ele><time>2026-04-08T16:24:16.916Z</time></trkpt><trkpt lat="43.778" lon="11.2220083"><ele>46.0</ele><time>2026-04-08T16:24:18.915Z</time></trkpt><trkpt lat="43.7779483" lon="11.222125"><ele>46.0</ele><time>2026-04-08T16:24:21.915Z</time></trkpt><trkpt lat="43.77791" lon="11.2222217"><ele>46.0</ele><time>2026-04-08T16:24:23.916Z</time></trkpt><trkpt lat="43.7778817" lon="11.2223017"><ele>46.0</ele><time>2026-04-08T16:24:25.916Z</time></trkpt><trkpt lat="43.7778483" lon="11.2223833"><ele>46.0</ele><time>2026-04-08T16:24:27.916Z</time></trkpt><trkpt lat="43.777805" lon="11.2224867"><ele>46.0</ele><time>2026-04-08T16:24:29.915Z</time></trkpt><trkpt lat="43.7777783" lon="11.22257"><ele>46.0</ele><time>2026-04-08T16:24:31.915Z</time></trkpt><trkpt lat="43.7777483" lon="11.2226617"><ele>46.0</ele><time>2026-04-08T16:24:33.915Z</time></trkpt><trkpt lat="43.7777033" lon="11.2227667"><ele>46.0</ele><time>2026-04-08T16:24:35.915Z</time></trkpt><trkpt lat="43.7776683" lon="11.22287"><ele>46.0</ele><time>2026-04-08T16:24:37.915Z</time></trkpt><trkpt lat="43.7776417" lon="11.22295"><ele>46.0</ele><time>2026-04-08T16:24:39.915Z</time></trkpt><trkpt lat="43.7776067" lon="11.2230817"><ele>46.0</ele><time>2026-04-08T16:24:42.916Z</time></trkpt><trkpt lat="43.77757" lon="11.2231933"><ele>46.0</ele><time>2026-04-08T16:24:44.915Z</time></trkpt><trkpt lat="43.7775433" lon="11.2233017"><ele>46.0</ele><time>2026-04-08T16:24:46.915Z</time></trkpt><trkpt lat="43.7775067" lon="11.2233983"><ele>45.57142857142858</ele><time>2026-04-08T16:24:48.916Z</time></trkpt><trkpt lat="43.777475" lon="11.2234783"><ele>45.14285714285714</ele><time>2026-04-08T16:24:50.916Z</time></trkpt><trkpt lat="43.777445" lon="11.2235667"><ele>44.714285714285715</ele><time>2026-04-08T16:24:52.915Z</time></trkpt><trkpt lat="43.777415" lon="11.2236467"><ele>44.28571428571429</ele><time>2026-04-08T16:24:54.915Z</time></trkpt><trkpt lat="43.7773717" lon="11.22372"><ele>43.85714285714286</ele><time>2026-04-08T16:24:56.916Z</time></trkpt><trkpt lat="43.777315" lon="11.2237967"><ele>43.42857142857143</ele><time>2026-04-08T16:24:59.915Z</time></trkpt><trkpt lat="43.77727" lon="11.2238917"><ele>43.0</ele><time>2026-04-08T16:25:02.916Z</time></trkpt><trkpt lat="43.7772333" lon="11.2240067"><ele>42.333333333333336</ele><time>2026-04-08T16:25:05.915Z</time></trkpt><trkpt lat="43.7772033" lon="11.224095"><ele>41.66666666666667</ele><time>2026-04-08T16:25:07.915Z</time></trkpt><trkpt lat="43.777175" lon="11.2242217"><ele>41.0</ele><time>2026-04-08T16:25:10.915Z</time></trkpt><trkpt lat="43.7771733" lon="11.22431"><ele>40.333333333333336</ele><time>2026-04-08T16:25:12.916Z</time></trkpt><trkpt lat="43.777195" lon="11.2244117"><ele>39.666666666666664</ele><time>2026-04-08T16:25:14.916Z</time></trkpt><trkpt lat="43.7772067" lon="11.224535"><ele>39.0</ele><time>2026-04-08T16:25:16.915Z</time></trkpt><trkpt lat="43.7771983" lon="11.2246517"><ele>39.0</ele><time>2026-04-08T16:25:18.916Z</time></trkpt><trkpt lat="43.777175" lon="11.2247483"><ele>39.0</ele><time>2026-04-08T16:25:20.915Z</time></trkpt><trkpt lat="43.7771367" lon="11.224855"><ele>39.0</ele><time>2026-04-08T16:25:22.915Z</time></trkpt><trkpt lat="43.7770967" lon="11.2249633"><ele>39.0</ele><time>2026-04-08T16:25:25.915Z</time></trkpt><trkpt lat="43.7770683" lon="11.2250583"><ele>39.0</ele><time>2026-04-08T16:25:27.915Z</time></trkpt><trkpt lat="43.7770367" lon="11.2251767"><ele>39.0</ele><time>2026-04-08T16:25:30.915Z</time></trkpt><trkpt lat="43.7770133" lon="11.225285"><ele>39.5</ele><time>2026-04-08T16:25:32.916Z</time></trkpt><trkpt lat="43.776985" lon="11.2253833"><ele>40.0</ele><time>2026-04-08T16:25:34.916Z</time></trkpt><trkpt lat="43.77694" lon="11.2254867"><ele>40.5</ele><time>2026-04-08T16:25:36.915Z</time></trkpt><trkpt lat="43.7769167" lon="11.2255883"><ele>41.0</ele><time>2026-04-08T16:25:38.915Z</time></trkpt><trkpt lat="43.7768917" lon="11.225695"><ele>41.5</ele><time>2026-04-08T16:25:40.915Z</time></trkpt><trkpt lat="43.7768433" lon="11.2258083"><ele>42.0</ele><time>2026-04-08T16:25:42.916Z</time></trkpt><trkpt lat="43.7768033" lon="11.2259083"><ele>42.166666666666664</ele><time>2026-04-08T16:25:44.916Z</time></trkpt><trkpt lat="43.776755" lon="11.2260117"><ele>42.333333333333336</ele><time>2026-04-08T16:25:46.916Z</time></trkpt><trkpt lat="43.7767167" lon="11.2261117"><ele>42.5</ele><time>2026-04-08T16:25:48.915Z</time></trkpt><trkpt lat="43.7766833" lon="11.2262067"><ele>42.66666666666667</ele><time>2026-04-08T16:25:50.915Z</time></trkpt><trkpt lat="43.7766467" lon="11.2262933"><ele>42.833333333333336</ele><time>2026-04-08T16:25:52.916Z</time></trkpt><trkpt lat="43.7766167" lon="11.22639"><ele>43.0</ele><time>2026-04-08T16:25:54.915Z</time></trkpt><trkpt lat="43.7765917" lon="11.2264767"><ele>42.833333333333336</ele><time>2026-04-08T16:25:56.915Z</time></trkpt><trkpt lat="43.7765617" lon="11.22658"><ele>42.66666666666667</ele><time>2026-04-08T16:25:58.916Z</time></trkpt><trkpt lat="43.7765233" lon="11.2266883"><ele>42.5</ele><time>2026-04-08T16:26:00.915Z</time></trkpt><trkpt lat="43.7764733" lon="11.2268"><ele>42.333333333333336</ele><time>2026-04-08T16:26:02.915Z</time></trkpt><trkpt lat="43.7764583" lon="11.2268933"><ele>42.166666666666664</ele><time>2026-04-08T16:26:04.915Z</time></trkpt><trkpt lat="43.7764367" lon="11.2269833"><ele>42.0</ele><time>2026-04-08T16:26:06.916Z</time></trkpt><trkpt lat="43.7764017" lon="11.2270983"><ele>42.0</ele><time>2026-04-08T16:26:09.915Z</time></trkpt><trkpt lat="43.7763867" lon="11.2271933"><ele>42.0</ele><time>2026-04-08T16:26:11.915Z</time></trkpt><trkpt lat="43.7763617" lon="11.22728"><ele>42.0</ele><time>2026-04-08T16:26:13.915Z</time></trkpt><trkpt lat="43.7763167" lon="11.2273767"><ele>42.0</ele><time>2026-04-08T16:26:15.915Z</time></trkpt><trkpt lat="43.7762783" lon="11.2274767"><ele>42.0</ele><time>2026-04-08T16:26:17.916Z</time></trkpt><trkpt lat="43.776245" lon="11.2275767"><ele>42.0</ele><time>2026-04-08T16:26:19.915Z</time></trkpt><trkpt lat="43.77621" lon="11.2276717"><ele>42.166666666666664</ele><time>2026-04-08T16:26:21.915Z</time></trkpt><trkpt lat="43.77618" lon="11.2277767"><ele>42.333333333333336</ele><time>2026-04-08T16:26:23.916Z</time></trkpt><trkpt lat="43.776145" lon="11.22787"><ele>42.5</ele><time>2026-04-08T16:26:25.915Z</time></trkpt><trkpt lat="43.7761083" lon="11.227985"><ele>42.66666666666667</ele><time>2026-04-08T16:26:27.915Z</time></trkpt><trkpt lat="43.7760767" lon="11.2280817"><ele>42.833333333333336</ele><time>2026-04-08T16:26:29.915Z</time></trkpt><trkpt lat="43.7760467" lon="11.2282033"><ele>43.0</ele><time>2026-04-08T16:26:31.915Z</time></trkpt><trkpt lat="43.7760217" lon="11.228305"><ele>43.00000000000001</ele><time>2026-04-08T16:26:33.915Z</time></trkpt><trkpt lat="43.7759867" lon="11.2284"><ele>43.0</ele><time>2026-04-08T16:26:35.915Z</time></trkpt><trkpt lat="43.77596" lon="11.2284883"><ele>43.0</ele><time>2026-04-08T16:26:37.915Z</time></trkpt><trkpt lat="43.7759283" lon="11.228585"><ele>43.0</ele><time>2026-04-08T16:26:40.915Z</time></trkpt><trkpt lat="43.7759017" lon="11.22867"><ele>43.0</ele><time>2026-04-08T16:26:45.915Z</time></trkpt><trkpt lat="43.7758667" lon="11.22875"><ele>43.00000000000001</ele><time>2026-04-08T16:26:48.916Z</time></trkpt><trkpt lat="43.775835" lon="11.228845"><ele>43.0</ele><time>2026-04-08T16:26:51.915Z</time></trkpt><trkpt lat="43.7758433" lon="11.2289333"><ele>42.833333333333336</ele><time>2026-04-08T16:26:54.915Z</time></trkpt><trkpt lat="43.7758883" lon="11.229015"><ele>42.66666666666667</ele><time>2026-04-08T16:26:57.915Z</time></trkpt><trkpt lat="43.77595" lon="11.2290883"><ele>42.5</ele><time>2026-04-08T16:27:01.915Z</time></trkpt><trkpt lat="43.7759933" lon="11.2291533"><ele>42.333333333333336</ele><time>2026-04-08T16:27:04.915Z</time></trkpt><trkpt lat="43.7760633" lon="11.229235"><ele>42.166666666666664</ele><time>2026-04-08T16:27:07.915Z</time></trkpt><trkpt lat="43.7761133" lon="11.22929"><ele>42.0</ele><time>2026-04-08T16:27:09.915Z</time></trkpt><trkpt lat="43.77617" lon="11.2293767"><ele>42.0</ele><time>2026-04-08T16:27:13.915Z</time></trkpt><trkpt lat="43.7762183" lon="11.229445"><ele>42.0</ele><time>2026-04-08T16:27:16.915Z</time></trkpt><trkpt lat="43.7763" lon="11.2295467"><ele>42.0</ele><time>2026-04-08T16:27:20.915Z</time></trkpt><trkpt lat="43.7763667" lon="11.2296383"><ele>42.0</ele><time>2026-04-08T16:27:24.915Z</time></trkpt><trkpt lat="43.776455" lon="11.22973"><ele>42.0</ele><time>2026-04-08T16:27:27.916Z</time></trkpt><trkpt lat="43.7763933" lon="11.2297067"><ele>42.0</ele><time>2026-04-08T16:27:28.915Z</time></trkpt><trkpt lat="43.7764767" lon="11.2297683"><ele>42.0</ele><time>2026-04-08T16:27:29.915Z</time></trkpt><trkpt lat="43.7764133" lon="11.229745"><ele>42.0</ele><time>2026-04-08T16:27:30.916Z</time></trkpt><trkpt lat="43.776505" lon="11.2298133"><ele>42.0</ele><time>2026-04-08T16:27:31.915Z</time></trkpt><trkpt lat="43.7765833" lon="11.2297917"><ele>42.0</ele><time>2026-04-08T16:27:34.915Z</time></trkpt><trkpt lat="43.7766633" lon="11.2297283"><ele>42.0</ele><time>2026-04-08T16:27:35.916Z</time></trkpt><trkpt lat="43.77676" lon="11.2297433"><ele>42.0</ele><time>2026-04-08T16:27:37.915Z</time></trkpt><trkpt lat="43.77684" lon="11.2298317"><ele>42.2</ele><time>2026-04-08T16:27:39.915Z</time></trkpt><trkpt lat="43.7768883" lon="11.2299583"><ele>42.400000000000006</ele><time>2026-04-08T16:27:41.915Z</time></trkpt><trkpt lat="43.7768883" lon="11.2301167"><ele>42.599999999999994</ele><time>2026-04-08T16:27:43.915Z</time></trkpt><trkpt lat="43.776845" lon="11.23029"><ele>42.8</ele><time>2026-04-08T16:27:45.915Z</time></trkpt><trkpt lat="43.7768133" lon="11.2303733"><ele>43.0</ele><time>2026-04-08T16:27:46.915Z</time></trkpt><trkpt lat="43.77678" lon="11.23045"><ele>43.0</ele><time>2026-04-08T16:27:47.916Z</time></trkpt><trkpt lat="43.776755" lon="11.230535"><ele>43.0</ele><time>2026-04-08T16:27:48.915Z</time></trkpt><trkpt lat="43.7767317" lon="11.2306167"><ele>43.0</ele><time>2026-04-08T16:27:49.915Z</time></trkpt><trkpt lat="43.77669" lon="11.2307717"><ele>43.0</ele><time>2026-04-08T16:27:51.916Z</time></trkpt><trkpt lat="43.7766433" lon="11.2309183"><ele>43.0</ele><time>2026-04-08T16:27:53.915Z</time></trkpt><trkpt lat="43.7766017" lon="11.2310567"><ele>43.16666666666667</ele><time>2026-04-08T16:27:55.916Z</time></trkpt><trkpt lat="43.7765717" lon="11.231185"><ele>43.333333333333336</ele><time>2026-04-08T16:27:57.915Z</time></trkpt><trkpt lat="43.7765417" lon="11.2312983"><ele>43.5</ele><time>2026-04-08T16:27:59.916Z</time></trkpt><trkpt lat="43.776505" lon="11.2314033"><ele>43.666666666666664</ele><time>2026-04-08T16:28:01.915Z</time></trkpt><trkpt lat="43.7764683" lon="11.2315117"><ele>43.83333333333333</ele><time>2026-04-08T16:28:03.916Z</time></trkpt><trkpt lat="43.7764433" lon="11.2316067"><ele>44.0</ele><time>2026-04-08T16:28:05.915Z</time></trkpt><trkpt lat="43.7764217" lon="11.2317033"><ele>44.666666666666664</ele><time>2026-04-08T16:28:07.915Z</time></trkpt><trkpt lat="43.776395" lon="11.2318117"><ele>45.33333333333333</ele><time>2026-04-08T16:28:09.916Z</time></trkpt><trkpt lat="43.7763683" lon="11.2319333"><ele>46.0</ele><time>2026-04-08T16:28:11.915Z</time></trkpt><trkpt lat="43.7763317" lon="11.2320367"><ele>46.666666666666664</ele><time>2026-04-08T16:28:13.915Z</time></trkpt><trkpt lat="43.7763" lon="11.2321483"><ele>47.333333333333336</ele><time>2026-04-08T16:28:15.915Z</time></trkpt><trkpt lat="43.7762667" lon="11.2322567"><ele>48.0</ele><time>2026-04-08T16:28:17.915Z</time></trkpt><trkpt lat="43.77624" lon="11.2323767"><ele>48.333333333333336</ele><time>2026-04-08T16:28:19.916Z</time></trkpt><trkpt lat="43.77621" lon="11.2324817"><ele>48.66666666666667</ele><time>2026-04-08T16:28:21.915Z</time></trkpt><trkpt lat="43.776175" lon="11.2325783"><ele>49.0</ele><time>2026-04-08T16:28:23.916Z</time></trkpt><trkpt lat="43.776155" lon="11.2326833"><ele>49.333333333333336</ele><time>2026-04-08T16:28:25.915Z</time></trkpt><trkpt lat="43.7761233" lon="11.2327867"><ele>49.66666666666667</ele><time>2026-04-08T16:28:27.914Z</time></trkpt><trkpt lat="43.7760933" lon="11.232885"><ele>50.0</ele><time>2026-04-08T16:28:29.914Z</time></trkpt><trkpt lat="43.7760633" lon="11.2329783"><ele>50.00000000000001</ele><time>2026-04-08T16:28:31.914Z</time></trkpt><trkpt lat="43.7760233" lon="11.23309"><ele>50.0</ele><time>2026-04-08T16:28:33.915Z</time></trkpt><trkpt lat="43.7759967" lon="11.2332017"><ele>50.0</ele><time>2026-04-08T16:28:35.914Z</time></trkpt><trkpt lat="43.7759667" lon="11.2333167"><ele>50.0</ele><time>2026-04-08T16:28:37.914Z</time></trkpt><trkpt lat="43.7759483" lon="11.2334283"><ele>50.00000000000001</ele><time>2026-04-08T16:28:39.914Z</time></trkpt><trkpt lat="43.775915" lon="11.2335333"><ele>50.0</ele><time>2026-04-08T16:28:41.914Z</time></trkpt><trkpt lat="43.7758867" lon="11.2336383"><ele>49.00000000000001</ele><time>2026-04-08T16:28:43.915Z</time></trkpt><trkpt lat="43.7758733" lon="11.2337383"><ele>48.0</ele><time>2026-04-08T16:28:45.915Z</time></trkpt><trkpt lat="43.7758633" lon="11.2338483"><ele>47.0</ele><time>2026-04-08T16:28:47.914Z</time></trkpt><trkpt lat="43.7758433" lon="11.2339567"><ele>46.0</ele><time>2026-04-08T16:28:49.915Z</time></trkpt><trkpt lat="43.7758183" lon="11.23406"><ele>45.0</ele><time>2026-04-08T16:28:51.915Z</time></trkpt><trkpt lat="43.7757967" lon="11.2341717"><ele>44.0</ele><time>2026-04-08T16:28:53.915Z</time></trkpt><trkpt lat="43.7757767" lon="11.2342867"><ele>44.0</ele><time>2026-04-08T16:28:55.914Z</time></trkpt><trkpt lat="43.7757867" lon="11.2343883"><ele>44.0</ele><time>2026-04-08T16:28:57.914Z</time></trkpt><trkpt lat="43.7758167" lon="11.23447"><ele>44.0</ele><time>2026-04-08T16:28:59.915Z</time></trkpt><trkpt lat="43.7758517" lon="11.23458"><ele>44.0</ele><time>2026-04-08T16:29:02.914Z</time></trkpt><trkpt lat="43.7758733" lon="11.2346683"><ele>44.0</ele><time>2026-04-08T16:29:04.914Z</time></trkpt><trkpt lat="43.775905" lon="11.2347517"><ele>44.0</ele><time>2026-04-08T16:29:06.915Z</time></trkpt><trkpt lat="43.7759483" lon="11.2348383"><ele>44.0</ele><time>2026-04-08T16:29:08.915Z</time></trkpt><trkpt lat="43.775995" lon="11.2349133"><ele>44.0</ele><time>2026-04-08T16:29:10.914Z</time></trkpt><trkpt lat="43.7760417" lon="11.2350033"><ele>44.0</ele><time>2026-04-08T16:29:12.915Z</time></trkpt><trkpt lat="43.77607" lon="11.235095"><ele>44.0</ele><time>2026-04-08T16:29:14.914Z</time></trkpt><trkpt lat="43.77608" lon="11.2352067"><ele>44.0</ele><time>2026-04-08T16:29:16.914Z</time></trkpt><trkpt lat="43.7760633" lon="11.2353"><ele>44.0</ele><time>2026-04-08T16:29:18.915Z</time></trkpt><trkpt lat="43.7760533" lon="11.2353917"><ele>44.0</ele><time>2026-04-08T16:29:20.914Z</time></trkpt><trkpt lat="43.7760333" lon="11.2355233"><ele>44.142857142857146</ele><time>2026-04-08T16:29:23.914Z</time></trkpt><trkpt lat="43.7760083" lon="11.2356233"><ele>44.285714285714285</ele><time>2026-04-08T16:29:25.915Z</time></trkpt><trkpt lat="43.7759783" lon="11.2357167"><ele>44.42857142857143</ele><time>2026-04-08T16:29:27.915Z</time></trkpt><trkpt lat="43.77595" lon="11.23581"><ele>44.57142857142857</ele><time>2026-04-08T16:29:29.914Z</time></trkpt><trkpt lat="43.7759167" lon="11.235885"><ele>44.714285714285715</ele><time>2026-04-08T16:29:31.914Z</time></trkpt><trkpt lat="43.7758883" lon="11.235985"><ele>44.857142857142854</ele><time>2026-04-08T16:29:34.914Z</time></trkpt><trkpt lat="43.77586" lon="11.2360783"><ele>45.0</ele><time>2026-04-08T16:29:37.915Z</time></trkpt><trkpt lat="43.7758367" lon="11.2361983"><ele>45.166666666666664</ele><time>2026-04-08T16:29:40.914Z</time></trkpt><trkpt lat="43.775825" lon="11.2363217"><ele>45.333333333333336</ele><time>2026-04-08T16:29:43.914Z</time></trkpt><trkpt lat="43.7758117" lon="11.2364167"><ele>45.5</ele><time>2026-04-08T16:29:45.914Z</time></trkpt><trkpt lat="43.7757933" lon="11.23653"><ele>45.66666666666667</ele><time>2026-04-08T16:29:47.914Z</time></trkpt><trkpt lat="43.77576" lon="11.2366533"><ele>45.833333333333336</ele><time>2026-04-08T16:29:49.914Z</time></trkpt><trkpt lat="43.7757067" lon="11.2367383"><ele>46.0</ele><time>2026-04-08T16:29:51.914Z</time></trkpt><trkpt lat="43.7756167" lon="11.2367567"><ele>46.16666666666667</ele><time>2026-04-08T16:29:54.914Z</time></trkpt><trkpt lat="43.775555" lon="11.2367883"><ele>46.333333333333336</ele><time>2026-04-08T16:29:57.915Z</time></trkpt><trkpt lat="43.7754817" lon="11.2367433"><ele>46.5</ele><time>2026-04-08T16:30:00.915Z</time></trkpt><trkpt lat="43.7754133" lon="11.2366967"><ele>46.666666666666664</ele><time>2026-04-08T16:30:03.914Z</time></trkpt><trkpt lat="43.775345" lon="11.2366233"><ele>46.83333333333333</ele><time>2026-04-08T16:30:06.914Z</time></trkpt><trkpt lat="43.7752633" lon="11.2365483"><ele>47.0</ele><time>2026-04-08T16:30:09.914Z</time></trkpt><trkpt lat="43.775205" lon="11.23651"><ele>47.14285714285714</ele><time>2026-04-08T16:30:11.914Z</time></trkpt><trkpt lat="43.7751483" lon="11.2364517"><ele>47.285714285714285</ele><time>2026-04-08T16:30:13.914Z</time></trkpt><trkpt lat="43.7750867" lon="11.2364"><ele>47.42857142857143</ele><time>2026-04-08T16:30:15.914Z</time></trkpt><trkpt lat="43.7750133" lon="11.2363933"><ele>47.57142857142857</ele><time>2026-04-08T16:30:17.914Z</time></trkpt><trkpt lat="43.774965" lon="11.2364867"><ele>47.714285714285715</ele><time>2026-04-08T16:30:19.914Z</time></trkpt><trkpt lat="43.774935" lon="11.2365683"><ele>47.857142857142854</ele><time>2026-04-08T16:30:21.914Z</time></trkpt><trkpt lat="43.7749117" lon="11.23665"><ele>48.0</ele><time>2026-04-08T16:30:23.914Z</time></trkpt><trkpt lat="43.774885" lon="11.2367333"><ele>47.99999999999999</ele><time>2026-04-08T16:30:25.914Z</time></trkpt><trkpt lat="43.77487" lon="11.236825"><ele>48.0</ele><time>2026-04-08T16:30:27.914Z</time></trkpt><trkpt lat="43.77484" lon="11.23692"><ele>48.0</ele><time>2026-04-08T16:30:29.914Z</time></trkpt><trkpt lat="43.7748117" lon="11.2370033"><ele>48.0</ele><time>2026-04-08T16:30:31.914Z</time></trkpt><trkpt lat="43.774785" lon="11.2370983"><ele>48.0</ele><time>2026-04-08T16:30:33.914Z</time></trkpt><trkpt lat="43.7747583" lon="11.2371983"><ele>47.99999999999999</ele><time>2026-04-08T16:30:35.915Z</time></trkpt><trkpt lat="43.774725" lon="11.2372967"><ele>48.0</ele><time>2026-04-08T16:30:37.914Z</time></trkpt><trkpt lat="43.7747" lon="11.2374183"><ele>48.5</ele><time>2026-04-08T16:30:39.915Z</time></trkpt><trkpt lat="43.77466" lon="11.2375183"><ele>49.0</ele><time>2026-04-08T16:30:41.914Z</time></trkpt><trkpt lat="43.7746283" lon="11.237615"><ele>49.5</ele><time>2026-04-08T16:30:43.914Z</time></trkpt><trkpt lat="43.7746017" lon="11.237725"><ele>50.0</ele><time>2026-04-08T16:30:45.914Z</time></trkpt><trkpt lat="43.7745783" lon="11.2378283"><ele>50.5</ele><time>2026-04-08T16:30:47.914Z</time></trkpt><trkpt lat="43.7745483" lon="11.237925"><ele>51.0</ele><time>2026-04-08T16:30:49.915Z</time></trkpt><trkpt lat="43.7745333" lon="11.2380267"><ele>51.0</ele><time>2026-04-08T16:30:51.914Z</time></trkpt><trkpt lat="43.77452" lon="11.2381183"><ele>51.0</ele><time>2026-04-08T16:30:53.914Z</time></trkpt><trkpt lat="43.7744567" lon="11.2382433"><ele>51.0</ele><time>2026-04-08T16:30:55.914Z</time></trkpt><trkpt lat="43.7744217" lon="11.2383583"><ele>51.0</ele><time>2026-04-08T16:30:57.914Z</time></trkpt><trkpt lat="43.7743917" lon="11.2384667"><ele>51.0</ele><time>2026-04-08T16:30:59.914Z</time></trkpt><trkpt lat="43.774355" lon="11.2385783"><ele>51.0</ele><time>2026-04-08T16:31:01.914Z</time></trkpt><trkpt lat="43.77431" lon="11.2386817"><ele>50.833333333333336</ele><time>2026-04-08T16:31:03.915Z</time></trkpt><trkpt lat="43.77427" lon="11.2387933"><ele>50.66666666666667</ele><time>2026-04-08T16:31:05.914Z</time></trkpt><trkpt lat="43.77424" lon="11.2389017"><ele>50.5</ele><time>2026-04-08T16:31:07.915Z</time></trkpt><trkpt lat="43.77421" lon="11.2390333"><ele>50.333333333333336</ele><time>2026-04-08T16:31:09.914Z</time></trkpt><trkpt lat="43.7741717" lon="11.239145"><ele>50.16666666666667</ele><time>2026-04-08T16:31:11.915Z</time></trkpt><trkpt lat="43.7741367" lon="11.2392383"><ele>50.0</ele><time>2026-04-08T16:31:13.914Z</time></trkpt><trkpt lat="43.7740967" lon="11.2393283"><ele>50.00000000000001</ele><time>2026-04-08T16:31:15.914Z</time></trkpt><trkpt lat="43.7740467" lon="11.23941"><ele>50.0</ele><time>2026-04-08T16:31:17.914Z</time></trkpt><trkpt lat="43.7739983" lon="11.239485"><ele>50.0</ele><time>2026-04-08T16:31:19.914Z</time></trkpt><trkpt lat="43.7739833" lon="11.2395717"><ele>50.0</ele><time>2026-04-08T16:31:21.915Z</time></trkpt><trkpt lat="43.7739583" lon="11.239655"><ele>50.0</ele><time>2026-04-08T16:31:23.914Z</time></trkpt><trkpt lat="43.7739183" lon="11.2397483"><ele>50.00000000000001</ele><time>2026-04-08T16:31:25.914Z</time></trkpt><trkpt lat="43.77389" lon="11.2398433"><ele>50.0</ele><time>2026-04-08T16:31:27.914Z</time></trkpt><trkpt lat="43.7738667" lon="11.239945"><ele>50.28571428571429</ele><time>2026-04-08T16:31:29.914Z</time></trkpt><trkpt lat="43.77384" lon="11.240035"><ele>50.57142857142857</ele><time>2026-04-08T16:31:31.915Z</time></trkpt><trkpt lat="43.7738067" lon="11.24013"><ele>50.85714285714286</ele><time>2026-04-08T16:31:33.914Z</time></trkpt><trkpt lat="43.7737783" lon="11.2402267"><ele>51.142857142857146</ele><time>2026-04-08T16:31:35.914Z</time></trkpt><trkpt lat="43.7737483" lon="11.2403167"><ele>51.42857142857143</ele><time>2026-04-08T16:31:37.915Z</time></trkpt><trkpt lat="43.7737183" lon="11.240405"><ele>51.714285714285715</ele><time>2026-04-08T16:31:39.914Z</time></trkpt><trkpt lat="43.7736933" lon="11.2405067"><ele>52.0</ele><time>2026-04-08T16:31:41.915Z</time></trkpt><trkpt lat="43.7736667" lon="11.2406017"><ele>51.83333333333333</ele><time>2026-04-08T16:31:43.914Z</time></trkpt><trkpt lat="43.7736317" lon="11.24071"><ele>51.666666666666664</ele><time>2026-04-08T16:31:45.914Z</time></trkpt><trkpt lat="43.7736017" lon="11.2408067"><ele>51.5</ele><time>2026-04-08T16:31:47.914Z</time></trkpt><trkpt lat="43.77356" lon="11.240905"><ele>51.33333333333333</ele><time>2026-04-08T16:31:49.914Z</time></trkpt><trkpt lat="43.77352" lon="11.2409983"><ele>51.166666666666664</ele><time>2026-04-08T16:31:51.914Z</time></trkpt><trkpt lat="43.773485" lon="11.241085"><ele>51.0</ele><time>2026-04-08T16:31:53.915Z</time></trkpt><trkpt lat="43.7734467" lon="11.241205"><ele>50.142857142857146</ele><time>2026-04-08T16:31:56.915Z</time></trkpt><trkpt lat="43.7734117" lon="11.2412867"><ele>49.28571428571429</ele><time>2026-04-08T16:31:58.914Z</time></trkpt><trkpt lat="43.7733833" lon="11.2413783"><ele>48.42857142857143</ele><time>2026-04-08T16:32:00.914Z</time></trkpt><trkpt lat="43.7733467" lon="11.241465"><ele>47.57142857142857</ele><time>2026-04-08T16:32:02.914Z</time></trkpt><trkpt lat="43.7733183" lon="11.2415533"><ele>46.714285714285715</ele><time>2026-04-08T16:32:04.915Z</time></trkpt><trkpt lat="43.7732933" lon="11.2416483"><ele>45.857142857142854</ele><time>2026-04-08T16:32:06.915Z</time></trkpt><trkpt lat="43.773265" lon="11.2417333"><ele>45.0</ele><time>2026-04-08T16:32:08.914Z</time></trkpt><trkpt lat="43.7732333" lon="11.2418267"><ele>44.833333333333336</ele><time>2026-04-08T16:32:10.914Z</time></trkpt><trkpt lat="43.7732017" lon="11.2419183"><ele>44.666666666666664</ele><time>2026-04-08T16:32:12.914Z</time></trkpt><trkpt lat="43.7731583" lon="11.2420167"><ele>44.5</ele><time>2026-04-08T16:32:14.914Z</time></trkpt><trkpt lat="43.7731283" lon="11.2421017"><ele>44.33333333333333</ele><time>2026-04-08T16:32:16.914Z</time></trkpt><trkpt lat="43.7730967" lon="11.2421967"><ele>44.166666666666664</ele><time>2026-04-08T16:32:18.914Z</time></trkpt><trkpt lat="43.7730683" lon="11.2422767"><ele>44.0</ele><time>2026-04-08T16:32:20.914Z</time></trkpt><trkpt lat="43.7730233" lon="11.2423883"><ele>45.166666666666664</ele><time>2026-04-08T16:32:23.914Z</time></trkpt><trkpt lat="43.77299" lon="11.242485"><ele>46.33333333333333</ele><time>2026-04-08T16:32:25.914Z</time></trkpt><trkpt lat="43.77295" lon="11.2426067"><ele>47.5</ele><time>2026-04-08T16:32:28.914Z</time></trkpt><trkpt lat="43.7729067" lon="11.2427183"><ele>48.666666666666664</ele><time>2026-04-08T16:32:31.915Z</time></trkpt><trkpt lat="43.7728733" lon="11.2427967"><ele>49.833333333333336</ele><time>2026-04-08T16:32:33.915Z</time></trkpt><trkpt lat="43.7728433" lon="11.2428917"><ele>51.0</ele><time>2026-04-08T16:32:35.915Z</time></trkpt><trkpt lat="43.772805" lon="11.2430083"><ele>51.0</ele><time>2026-04-08T16:32:38.914Z</time></trkpt><trkpt lat="43.7727733" lon="11.243095"><ele>51.0</ele><time>2026-04-08T16:32:40.914Z</time></trkpt><trkpt lat="43.77275" lon="11.2431783"><ele>51.0</ele><time>2026-04-08T16:32:42.914Z</time></trkpt><trkpt lat="43.7727067" lon="11.24328"><ele>51.0</ele><time>2026-04-08T16:32:44.914Z</time></trkpt><trkpt lat="43.7726683" lon="11.2433533"><ele>51.0</ele><time>2026-04-08T16:32:46.914Z</time></trkpt><trkpt lat="43.7726283" lon="11.24346"><ele>51.0</ele><time>2026-04-08T16:32:49.914Z</time></trkpt><trkpt lat="43.7725867" lon="11.2435567"><ele>50.333333333333336</ele><time>2026-04-08T16:32:52.914Z</time></trkpt><trkpt lat="43.7725617" lon="11.2436467"><ele>49.666666666666664</ele><time>2026-04-08T16:32:55.914Z</time></trkpt><trkpt lat="43.7725167" lon="11.243735"><ele>49.0</ele><time>2026-04-08T16:32:58.914Z</time></trkpt><trkpt lat="43.7724817" lon="11.2438217"><ele>48.33333333333333</ele><time>2026-04-08T16:33:00.914Z</time></trkpt><trkpt lat="43.7724467" lon="11.2439283"><ele>47.666666666666664</ele><time>2026-04-08T16:33:02.914Z</time></trkpt><trkpt lat="43.772405" lon="11.24402"><ele>47.0</ele><time>2026-04-08T16:33:04.915Z</time></trkpt><trkpt lat="43.7723683" lon="11.2441133"><ele>48.33333333333333</ele><time>2026-04-08T16:33:06.914Z</time></trkpt><trkpt lat="43.77233" lon="11.2441967"><ele>49.666666666666664</ele><time>2026-04-08T16:33:08.914Z</time></trkpt><trkpt lat="43.7722933" lon="11.2442867"><ele>51.0</ele><time>2026-04-08T16:33:10.914Z</time></trkpt><trkpt lat="43.7722683" lon="11.2443767"><ele>52.33333333333333</ele><time>2026-04-08T16:33:12.914Z</time></trkpt><trkpt lat="43.7722317" lon="11.2444683"><ele>53.666666666666664</ele><time>2026-04-08T16:33:14.914Z</time></trkpt><trkpt lat="43.7721933" lon="11.2445633"><ele>55.0</ele><time>2026-04-08T16:33:16.914Z</time></trkpt><trkpt lat="43.772145" lon="11.2446583"><ele>54.99999999999999</ele><time>2026-04-08T16:33:18.914Z</time></trkpt><trkpt lat="43.7721183" lon="11.2447567"><ele>55.0</ele><time>2026-04-08T16:33:20.914Z</time></trkpt><trkpt lat="43.772085" lon="11.2448383"><ele>55.0</ele><time>2026-04-08T16:33:22.915Z</time></trkpt><trkpt lat="43.772045" lon="11.2449233"><ele>55.0</ele><time>2026-04-08T16:33:24.914Z</time></trkpt><trkpt lat="43.7720083" lon="11.245025"><ele>55.0</ele><time>2026-04-08T16:33:26.915Z</time></trkpt><trkpt lat="43.7719683" lon="11.2451133"><ele>54.99999999999999</ele><time>2026-04-08T16:33:28.915Z</time></trkpt><trkpt lat="43.7719333" lon="11.2451867"><ele>55.0</ele><time>2026-04-08T16:33:30.914Z</time></trkpt><trkpt lat="43.7718983" lon="11.245265"><ele>54.99999999999999</ele><time>2026-04-08T16:33:32.914Z</time></trkpt><trkpt lat="43.7718567" lon="11.2453467"><ele>55.0</ele><time>2026-04-08T16:33:34.914Z</time></trkpt><trkpt lat="43.7718117" lon="11.245425"><ele>55.0</ele><time>2026-04-08T16:33:36.915Z</time></trkpt><trkpt lat="43.77178" lon="11.2455217"><ele>55.0</ele><time>2026-04-08T16:33:38.915Z</time></trkpt><trkpt lat="43.7717483" lon="11.2456017"><ele>55.0</ele><time>2026-04-08T16:33:40.915Z</time></trkpt><trkpt lat="43.7717183" lon="11.2456917"><ele>54.99999999999999</ele><time>2026-04-08T16:33:42.915Z</time></trkpt><trkpt lat="43.7716783" lon="11.2457833"><ele>55.0</ele><time>2026-04-08T16:33:44.914Z</time></trkpt><trkpt lat="43.7716433" lon="11.2458617"><ele>55.28571428571428</ele><time>2026-04-08T16:33:46.914Z</time></trkpt><trkpt lat="43.7716117" lon="11.2459517"><ele>55.57142857142857</ele><time>2026-04-08T16:33:48.914Z</time></trkpt><trkpt lat="43.771575" lon="11.24605"><ele>55.857142857142854</ele><time>2026-04-08T16:33:50.914Z</time></trkpt><trkpt lat="43.77153" lon="11.2461383"><ele>56.14285714285714</ele><time>2026-04-08T16:33:52.915Z</time></trkpt><trkpt lat="43.7714967" lon="11.246225"><ele>56.42857142857142</ele><time>2026-04-08T16:33:54.915Z</time></trkpt><trkpt lat="43.7714617" lon="11.246315"><ele>56.71428571428571</ele><time>2026-04-08T16:33:56.914Z</time></trkpt><trkpt lat="43.7714167" lon="11.246395"><ele>57.0</ele><time>2026-04-08T16:33:58.914Z</time></trkpt><trkpt lat="43.771375" lon="11.2464933"><ele>57.0</ele><time>2026-04-08T16:34:00.915Z</time></trkpt><trkpt lat="43.7713317" lon="11.2465917"><ele>57.0</ele><time>2026-04-08T16:34:02.914Z</time></trkpt><trkpt lat="43.7712883" lon="11.2466817"><ele>57.0</ele><time>2026-04-08T16:34:04.915Z</time></trkpt><trkpt lat="43.7712417" lon="11.2467683"><ele>57.0</ele><time>2026-04-08T16:34:06.914Z</time></trkpt><trkpt lat="43.7712033" lon="11.2468683"><ele>57.0</ele><time>2026-04-08T16:34:08.914Z</time></trkpt><trkpt lat="43.7711733" lon="11.246965"><ele>57.0</ele><time>2026-04-08T16:34:10.914Z</time></trkpt><trkpt lat="43.771145" lon="11.2470433"><ele>57.0</ele><time>2026-04-08T16:34:12.914Z</time></trkpt><trkpt lat="43.771105" lon="11.247115"><ele>57.0</ele><time>2026-04-08T16:34:14.914Z</time></trkpt><trkpt lat="43.7710433" lon="11.2472183"><ele>57.0</ele><time>2026-04-08T16:34:17.915Z</time></trkpt><trkpt lat="43.770995" lon="11.2473317"><ele>57.0</ele><time>2026-04-08T16:34:20.914Z</time></trkpt><trkpt lat="43.770955" lon="11.2474067"><ele>57.0</ele><time>2026-04-08T16:34:22.915Z</time></trkpt><trkpt lat="43.77091" lon="11.2474817"><ele>57.0</ele><time>2026-04-08T16:34:24.914Z</time></trkpt><trkpt lat="43.7708667" lon="11.2475967"><ele>56.5</ele><time>2026-04-08T16:34:27.914Z</time></trkpt><trkpt lat="43.7708617" lon="11.247725"><ele>56.0</ele><time>2026-04-08T16:34:30.914Z</time></trkpt><trkpt lat="43.7708667" lon="11.2478167"><ele>55.5</ele><time>2026-04-08T16:34:32.914Z</time></trkpt><trkpt lat="43.7709017" lon="11.2478983"><ele>55.0</ele><time>2026-04-08T16:34:34.914Z</time></trkpt><trkpt lat="43.77096" lon="11.2479967"><ele>54.5</ele><time>2026-04-08T16:34:36.914Z</time></trkpt><trkpt lat="43.7709867" lon="11.2481283"><ele>54.0</ele><time>2026-04-08T16:34:38.914Z</time></trkpt><trkpt lat="43.770975" lon="11.2482367"><ele>54.0</ele><time>2026-04-08T16:34:40.914Z</time></trkpt><trkpt lat="43.7709833" lon="11.24835"><ele>54.0</ele><time>2026-04-08T16:34:42.914Z</time></trkpt><trkpt lat="43.7710233" lon="11.2484717"><ele>54.0</ele><time>2026-04-08T16:34:44.915Z</time></trkpt><trkpt lat="43.7710567" lon="11.2485933"><ele>54.0</ele><time>2026-04-08T16:34:46.915Z</time></trkpt><trkpt lat="43.7710783" lon="11.2486933"><ele>54.0</ele><time>2026-04-08T16:34:48.914Z</time></trkpt><trkpt lat="43.7710433" lon="11.248795"><ele>54.0</ele><time>2026-04-08T16:34:50.914Z</time></trkpt><trkpt lat="43.771065" lon="11.2488917"><ele>54.666666666666664</ele><time>2026-04-08T16:34:52.915Z</time></trkpt><trkpt lat="43.7710717" lon="11.249"><ele>55.33333333333333</ele><time>2026-04-08T16:34:54.915Z</time></trkpt><trkpt lat="43.7710833" lon="11.2491067"><ele>56.0</ele><time>2026-04-08T16:34:56.915Z</time></trkpt><trkpt lat="43.7710483" lon="11.2492183"><ele>56.666666666666664</ele><time>2026-04-08T16:34:58.914Z</time></trkpt><trkpt lat="43.771075" lon="11.2493067"><ele>57.33333333333333</ele><time>2026-04-08T16:35:01.915Z</time></trkpt><trkpt lat="43.77111" lon="11.2493983"><ele>58.0</ele><time>2026-04-08T16:35:04.914Z</time></trkpt><trkpt lat="43.77118" lon="11.249415"><ele>58.00000000000001</ele><time>2026-04-08T16:35:06.914Z</time></trkpt><trkpt lat="43.7712217" lon="11.24951"><ele>58.0</ele><time>2026-04-08T16:35:09.914Z</time></trkpt><trkpt lat="43.7712367" lon="11.2496167"><ele>58.00000000000001</ele><time>2026-04-08T16:35:12.914Z</time></trkpt><trkpt lat="43.771235" lon="11.249705"><ele>58.00000000000001</ele><time>2026-04-08T16:35:14.914Z</time></trkpt><trkpt lat="43.7712367" lon="11.249805"><ele>58.0</ele><time>2026-04-08T16:35:16.914Z</time></trkpt><trkpt lat="43.77125" lon="11.2499117"><ele>58.00000000000001</ele><time>2026-04-08T16:35:19.914Z</time></trkpt><trkpt lat="43.77128" lon="11.250005"><ele>58.00000000000001</ele><time>2026-04-08T16:35:22.914Z</time></trkpt><trkpt lat="43.7712983" lon="11.2500933"><ele>57.83333333333333</ele><time>2026-04-08T16:35:25.914Z</time></trkpt><trkpt lat="43.7713217" lon="11.2501917"><ele>57.666666666666664</ele><time>2026-04-08T16:35:28.915Z</time></trkpt><trkpt lat="43.7713333" lon="11.2502967"><ele>57.5</ele><time>2026-04-08T16:35:32.914Z</time></trkpt><trkpt lat="43.7713533" lon="11.250405"><ele>57.33333333333333</ele><time>2026-04-08T16:35:35.914Z</time></trkpt><trkpt lat="43.77141" lon="11.2504983"><ele>57.166666666666664</ele><time>2026-04-08T16:35:38.914Z</time></trkpt><trkpt lat="43.7714183" lon="11.2506067"><ele>57.0</ele><time>2026-04-08T16:35:40.914Z</time></trkpt><trkpt lat="43.7714467" lon="11.2507017"><ele>58.5</ele><time>2026-04-08T16:35:43.914Z</time></trkpt><trkpt lat="43.7714733" lon="11.2509517"><ele>60.0</ele><time>2026-04-08T16:35:49.914Z</time></trkpt><trkpt lat="43.7714933" lon="11.2510783"><ele>61.5</ele><time>2026-04-08T16:35:51.914Z</time></trkpt><trkpt lat="43.7714967" lon="11.251245"><ele>63.0</ele><time>2026-04-08T16:35:53.914Z</time></trkpt><trkpt lat="43.771505" lon="11.2513567"><ele>63.333333333333336</ele><time>2026-04-08T16:35:56.914Z</time></trkpt><trkpt lat="43.771505" lon="11.2514783"><ele>63.66666666666667</ele><time>2026-04-08T16:35:59.914Z</time></trkpt><trkpt lat="43.77152" lon="11.2515783"><ele>64.0</ele><time>2026-04-08T16:36:02.915Z</time></trkpt><trkpt lat="43.77152" lon="11.2516933"><ele>64.33333333333334</ele><time>2026-04-08T16:36:05.914Z</time></trkpt><trkpt lat="43.7715183" lon="11.251825"><ele>64.66666666666667</ele><time>2026-04-08T16:36:08.914Z</time></trkpt><trkpt lat="43.77155" lon="11.2519383"><ele>65.0</ele><time>2026-04-08T16:36:11.915Z</time></trkpt><trkpt lat="43.7715667" lon="11.2520783"><ele>65.0</ele><time>2026-04-08T16:36:14.915Z</time></trkpt><trkpt lat="43.7715333" lon="11.252155"><ele>65.0</ele><time>2026-04-08T16:36:16.914Z</time></trkpt><trkpt lat="43.7715117" lon="11.2522633"><ele>65.0</ele><time>2026-04-08T16:36:20.914Z</time></trkpt><trkpt lat="43.7715" lon="11.25235"><ele>65.0</ele><time>2026-04-08T16:36:22.914Z</time></trkpt><trkpt lat="43.771495" lon="11.2524933"><ele>65.0</ele><time>2026-04-08T16:36:25.914Z</time></trkpt><trkpt lat="43.7714917" lon="11.2526017"><ele>65.0</ele><time>2026-04-08T16:36:27.914Z</time></trkpt><trkpt lat="43.7714933" lon="11.25269"><ele>64.83333333333334</ele><time>2026-04-08T16:36:29.915Z</time></trkpt><trkpt lat="43.7715" lon="11.2527783"><ele>64.66666666666667</ele><time>2026-04-08T16:36:31.914Z</time></trkpt><trkpt lat="43.7715233" lon="11.2529117"><ele>64.5</ele><time>2026-04-08T16:36:34.914Z</time></trkpt><trkpt lat="43.7715117" lon="11.2530367"><ele>64.33333333333333</ele><time>2026-04-08T16:36:37.915Z</time></trkpt><trkpt lat="43.771475" lon="11.253155"><ele>64.16666666666666</ele><time>2026-04-08T16:36:39.915Z</time></trkpt><trkpt lat="43.7714483" lon="11.2532783"><ele>64.0</ele><time>2026-04-08T16:36:42.915Z</time></trkpt><trkpt lat="43.7714317" lon="11.2533733"><ele>64.60000000000001</ele><time>2026-04-08T16:36:44.914Z</time></trkpt><trkpt lat="43.7714567" lon="11.2535033"><ele>65.2</ele><time>2026-04-08T16:36:46.914Z</time></trkpt><trkpt lat="43.7715817" lon="11.2536133"><ele>65.80000000000001</ele><time>2026-04-08T16:36:48.914Z</time></trkpt><trkpt lat="43.7715417" lon="11.2536817"><ele>66.4</ele><time>2026-04-08T16:36:50.914Z</time></trkpt><trkpt lat="43.7716133" lon="11.2536783"><ele>67.0</ele><time>2026-04-08T16:36:55.915Z</time></trkpt><trkpt lat="43.7716867" lon="11.2536283"><ele>67.0</ele><time>2026-04-08T16:36:58.914Z</time></trkpt><trkpt lat="43.7717367" lon="11.2535467"><ele>67.0</ele><time>2026-04-08T16:37:00.914Z</time></trkpt><trkpt lat="43.771825" lon="11.253505"><ele>67.0</ele><time>2026-04-08T16:37:03.914Z</time></trkpt><trkpt lat="43.77192" lon="11.2535267"><ele>67.0</ele><time>2026-04-08T16:37:06.914Z</time></trkpt><trkpt lat="43.7720217" lon="11.2535533"><ele>67.0</ele><time>2026-04-08T16:37:09.914Z</time></trkpt><trkpt lat="43.7721067" lon="11.2536217"><ele>66.57142857142857</ele><time>2026-04-08T16:37:11.914Z</time></trkpt><trkpt lat="43.7721783" lon="11.2536617"><ele>66.14285714285714</ele><time>2026-04-08T16:37:14.914Z</time></trkpt><trkpt lat="43.7722533" lon="11.2536867"><ele>65.71428571428571</ele><time>2026-04-08T16:37:22.914Z</time></trkpt><trkpt lat="43.7723233" lon="11.2536933"><ele>65.28571428571428</ele><time>2026-04-08T16:37:26.914Z</time></trkpt><trkpt lat="43.7724083" lon="11.2536983"><ele>64.85714285714285</ele><time>2026-04-08T16:37:31.914Z</time></trkpt><trkpt lat="43.77248" lon="11.2537083"><ele>64.42857142857143</ele><time>2026-04-08T16:37:34.914Z</time></trkpt><trkpt lat="43.7725267" lon="11.2536483"><ele>64.0</ele><time>2026-04-08T16:37:36.914Z</time></trkpt><trkpt lat="43.772605" lon="11.2536833"><ele>63.99999999999999</ele><time>2026-04-08T16:37:41.914Z</time></trkpt><trkpt lat="43.77267" lon="11.253775"><ele>64.0</ele><time>2026-04-08T16:37:43.914Z</time></trkpt><trkpt lat="43.7727083" lon="11.2538483"><ele>64.0</ele><time>2026-04-08T16:37:45.914Z</time></trkpt><trkpt lat="43.7727333" lon="11.25396"><ele>64.0</ele><time>2026-04-08T16:37:47.914Z</time></trkpt><trkpt lat="43.7727" lon="11.254065"><ele>63.99999999999999</ele><time>2026-04-08T16:37:50.915Z</time></trkpt><trkpt lat="43.77268" lon="11.2541933"><ele>64.0</ele><time>2026-04-08T16:37:54.914Z</time></trkpt><trkpt lat="43.7727283" lon="11.2542867"><ele>62.83333333333333</ele><time>2026-04-08T16:37:56.914Z</time></trkpt><trkpt lat="43.772755" lon="11.2543667"><ele>61.666666666666664</ele><time>2026-04-08T16:37:58.913Z</time></trkpt><trkpt lat="43.77277" lon="11.2544683"><ele>60.5</ele><time>2026-04-08T16:38:01.914Z</time></trkpt><trkpt lat="43.772815" lon="11.2545533"><ele>59.33333333333333</ele><time>2026-04-08T16:38:04.913Z</time></trkpt><trkpt lat="43.7728667" lon="11.25463"><ele>58.166666666666664</ele><time>2026-04-08T16:38:08.913Z</time></trkpt><trkpt lat="43.7729483" lon="11.2546583"><ele>57.0</ele><time>2026-04-08T16:38:13.913Z</time></trkpt><trkpt lat="43.773025" lon="11.254665"><ele>57.0</ele><time>2026-04-08T16:38:15.913Z</time></trkpt><trkpt lat="43.7731033" lon="11.2546583"><ele>57.0</ele><time>2026-04-08T16:38:17.914Z</time></trkpt><trkpt lat="43.7731867" lon="11.25469"><ele>57.0</ele><time>2026-04-08T16:38:19.914Z</time></trkpt><trkpt lat="43.7732383" lon="11.25475"><ele>57.0</ele><time>2026-04-08T16:38:21.913Z</time></trkpt><trkpt lat="43.7732783" lon="11.254865"><ele>57.0</ele><time>2026-04-08T16:38:24.913Z</time></trkpt><trkpt lat="43.7733067" lon="11.254985"><ele>57.0</ele><time>2026-04-08T16:38:27.913Z</time></trkpt><trkpt lat="43.773315" lon="11.2550783"><ele>56.166666666666664</ele><time>2026-04-08T16:38:29.913Z</time></trkpt><trkpt lat="43.7732917" lon="11.2551817"><ele>55.33333333333333</ele><time>2026-04-08T16:38:32.913Z</time></trkpt><trkpt lat="43.77328" lon="11.2552783"><ele>54.5</ele><time>2026-04-08T16:38:36.913Z</time></trkpt><trkpt lat="43.7733117" lon="11.255385"><ele>53.666666666666664</ele><time>2026-04-08T16:38:39.913Z</time></trkpt><trkpt lat="43.77337" lon="11.2554333"><ele>52.83333333333333</ele><time>2026-04-08T16:38:43.914Z</time></trkpt><trkpt lat="43.7734783" lon="11.255415"><ele>52.0</ele><time>2026-04-08T16:38:49.913Z</time></trkpt><trkpt lat="43.7735617" lon="11.255405"><ele>53.666666666666664</ele><time>2026-04-08T16:38:52.914Z</time></trkpt><trkpt lat="43.773645" lon="11.2554467"><ele>55.33333333333333</ele><time>2026-04-08T16:38:54.913Z</time></trkpt><trkpt lat="43.77373" lon="11.2554783"><ele>57.0</ele><time>2026-04-08T16:38:56.913Z</time></trkpt><trkpt lat="43.7738" lon="11.2555533"><ele>58.66666666666667</ele><time>2026-04-08T16:38:58.913Z</time></trkpt><trkpt lat="43.77388" lon="11.255605"><ele>60.333333333333336</ele><time>2026-04-08T16:39:01.914Z</time></trkpt><trkpt lat="43.7739567" lon="11.2556533"><ele>62.0</ele><time>2026-04-08T16:39:04.913Z</time></trkpt><trkpt lat="43.7740233" lon="11.255695"><ele>62.16666666666667</ele><time>2026-04-08T16:39:06.913Z</time></trkpt><trkpt lat="43.774095" lon="11.255705"><ele>62.333333333333336</ele><time>2026-04-08T16:39:08.913Z</time></trkpt><trkpt lat="43.774175" lon="11.2557333"><ele>62.5</ele><time>2026-04-08T16:39:11.913Z</time></trkpt><trkpt lat="43.7742467" lon="11.2557533"><ele>62.66666666666667</ele><time>2026-04-08T16:39:14.913Z</time></trkpt><trkpt lat="43.774325" lon="11.2557933"><ele>62.833333333333336</ele><time>2026-04-08T16:39:18.914Z</time></trkpt><trkpt lat="43.774395" lon="11.255865"><ele>63.0</ele><time>2026-04-08T16:39:22.913Z</time></trkpt><trkpt lat="43.7744567" lon="11.2559483"><ele>62.714285714285715</ele><time>2026-04-08T16:39:26.913Z</time></trkpt><trkpt lat="43.774485" lon="11.2560583"><ele>62.42857142857143</ele><time>2026-04-08T16:39:29.914Z</time></trkpt><trkpt lat="43.7744783" lon="11.25615"><ele>62.14285714285714</ele><time>2026-04-08T16:39:32.914Z</time></trkpt><trkpt lat="43.774445" lon="11.2562383"><ele>61.857142857142854</ele><time>2026-04-08T16:39:33.913Z</time></trkpt><trkpt lat="43.7744633" lon="11.25633"><ele>61.57142857142857</ele><time>2026-04-08T16:39:35.913Z</time></trkpt><trkpt lat="43.7744133" lon="11.2564"><ele>61.28571428571428</ele><time>2026-04-08T16:39:37.913Z</time></trkpt><trkpt lat="43.7743883" lon="11.2564917"><ele>60.99999999999999</ele><time>2026-04-08T16:39:39.914Z</time></trkpt><trkpt lat="43.77438" lon="11.25659"><ele>60.99999999999999</ele><time>2026-04-08T16:39:41.913Z</time></trkpt><trkpt lat="43.7744283" lon="11.2566617"><ele>61.0</ele><time>2026-04-08T16:39:45.914Z</time></trkpt><trkpt lat="43.77449" lon="11.2567417"><ele>61.0</ele><time>2026-04-08T16:39:48.913Z</time></trkpt><trkpt lat="43.7745433" lon="11.2568367"><ele>61.0</ele><time>2026-04-08T16:39:51.913Z</time></trkpt><trkpt lat="43.774595" lon="11.2569217"><ele>60.99999999999999</ele><time>2026-04-08T16:39:54.914Z</time></trkpt><trkpt lat="43.7746667" lon="11.2569217"><ele>61.0</ele><time>2026-04-08T16:39:56.913Z</time></trkpt><trkpt lat="43.774745" lon="11.2569667"><ele>60.99999999999999</ele><time>2026-04-08T16:39:59.913Z</time></trkpt><trkpt lat="43.774815" lon="11.2569967"><ele>61.0</ele><time>2026-04-08T16:40:02.914Z</time></trkpt><trkpt lat="43.7748883" lon="11.2570183"><ele>61.0</ele><time>2026-04-08T16:40:05.913Z</time></trkpt><trkpt lat="43.7749533" lon="11.25706"><ele>61.0</ele><time>2026-04-08T16:40:07.913Z</time></trkpt><trkpt lat="43.7750367" lon="11.2571133"><ele>60.99999999999999</ele><time>2026-04-08T16:40:09.913Z</time></trkpt><trkpt lat="43.775105" lon="11.25724"><ele>61.0</ele><time>2026-04-08T16:40:11.913Z</time></trkpt><trkpt lat="43.7751667" lon="11.257325"><ele>60.666666666666664</ele><time>2026-04-08T16:40:13.913Z</time></trkpt><trkpt lat="43.7752133" lon="11.2573867"><ele>60.33333333333333</ele><time>2026-04-08T16:40:15.913Z</time></trkpt><trkpt lat="43.7752633" lon="11.2574717"><ele>60.0</ele><time>2026-04-08T16:40:18.914Z</time></trkpt><trkpt lat="43.7753117" lon="11.2575433"><ele>59.66666666666667</ele><time>2026-04-08T16:40:20.913Z</time></trkpt><trkpt lat="43.7753667" lon="11.257625"><ele>59.333333333333336</ele><time>2026-04-08T16:40:23.914Z</time></trkpt><trkpt lat="43.7754367" lon="11.25769"><ele>59.0</ele><time>2026-04-08T16:40:26.913Z</time></trkpt><trkpt lat="43.7755117" lon="11.2577317"><ele>59.00000000000001</ele><time>2026-04-08T16:40:29.913Z</time></trkpt><trkpt lat="43.7755817" lon="11.2577833"><ele>59.0</ele><time>2026-04-08T16:40:32.913Z</time></trkpt><trkpt lat="43.7756567" lon="11.2578067"><ele>59.0</ele><time>2026-04-08T16:40:34.913Z</time></trkpt><trkpt lat="43.7757183" lon="11.2578533"><ele>59.0</ele><time>2026-04-08T16:40:36.914Z</time></trkpt><trkpt lat="43.7757633" lon="11.2579167"><ele>59.00000000000001</ele><time>2026-04-08T16:40:38.913Z</time></trkpt><trkpt lat="43.7758417" lon="11.258"><ele>59.0</ele><time>2026-04-08T16:40:40.913Z</time></trkpt><trkpt lat="43.7759317" lon="11.2580383"><ele>59.00000000000001</ele><time>2026-04-08T16:40:43.913Z</time></trkpt><trkpt lat="43.7759833" lon="11.2581067"><ele>59.0</ele><time>2026-04-08T16:40:45.914Z</time></trkpt><trkpt lat="43.776025" lon="11.2582217"><ele>59.0</ele><time>2026-04-08T16:40:47.914Z</time></trkpt><trkpt lat="43.776145" lon="11.258185"><ele>59.0</ele><time>2026-04-08T16:40:49.913Z</time></trkpt><trkpt lat="43.7762167" lon="11.2581683"><ele>59.00000000000001</ele><time>2026-04-08T16:40:50.913Z</time></trkpt><trkpt lat="43.7762533" lon="11.2582633"><ele>59.0</ele><time>2026-04-08T16:40:53.913Z</time></trkpt><trkpt lat="43.77624" lon="11.25836"><ele>59.16666666666667</ele><time>2026-04-08T16:40:59.913Z</time></trkpt><trkpt lat="43.7761983" lon="11.258445"><ele>59.333333333333336</ele><time>2026-04-08T16:41:02.913Z</time></trkpt><trkpt lat="43.7761567" lon="11.25856"><ele>59.5</ele><time>2026-04-08T16:41:05.913Z</time></trkpt><trkpt lat="43.7761083" lon="11.2586667"><ele>59.66666666666667</ele><time>2026-04-08T16:41:08.913Z</time></trkpt><trkpt lat="43.7760633" lon="11.2587767"><ele>59.833333333333336</ele><time>2026-04-08T16:41:11.913Z</time></trkpt><trkpt lat="43.7760233" lon="11.2588867"><ele>60.0</ele><time>2026-04-08T16:41:14.913Z</time></trkpt><trkpt lat="43.77597" lon="11.2589883"><ele>60.0</ele><time>2026-04-08T16:41:17.913Z</time></trkpt><trkpt lat="43.7759217" lon="11.259075"><ele>60.0</ele><time>2026-04-08T16:41:20.913Z</time></trkpt><trkpt lat="43.7758867" lon="11.2591683"><ele>60.0</ele><time>2026-04-08T16:41:23.914Z</time></trkpt><trkpt lat="43.7758433" lon="11.2592617"><ele>60.0</ele><time>2026-04-08T16:41:26.913Z</time></trkpt><trkpt lat="43.7758117" lon="11.2593567"><ele>60.0</ele><time>2026-04-08T16:41:29.913Z</time></trkpt><trkpt lat="43.7757967" lon="11.2594617"><ele>60.0</ele><time>2026-04-08T16:41:32.914Z</time></trkpt><trkpt lat="43.7757683" lon="11.2595417"><ele>60.0</ele><time>2026-04-08T16:41:34.914Z</time></trkpt><trkpt lat="43.775725" lon="11.2596117"><ele>60.0</ele><time>2026-04-08T16:41:37.913Z</time></trkpt><trkpt lat="43.77569" lon="11.2597117"><ele>60.0</ele><time>2026-04-08T16:41:40.913Z</time></trkpt><trkpt lat="43.775665" lon="11.2597983"><ele>60.0</ele><time>2026-04-08T16:41:42.913Z</time></trkpt><trkpt lat="43.775635" lon="11.2598967"><ele>60.0</ele><time>2026-04-08T16:41:44.913Z</time></trkpt><trkpt lat="43.7756217" lon="11.26001"><ele>60.0</ele><time>2026-04-08T16:41:46.913Z</time></trkpt><trkpt lat="43.7755833" lon="11.260095"><ele>60.0</ele><time>2026-04-08T16:41:48.913Z</time></trkpt><trkpt lat="43.7755267" lon="11.260185"><ele>60.142857142857146</ele><time>2026-04-08T16:41:51.913Z</time></trkpt><trkpt lat="43.7754933" lon="11.2602667"><ele>60.28571428571428</ele><time>2026-04-08T16:41:54.913Z</time></trkpt><trkpt lat="43.7754517" lon="11.26034"><ele>60.42857142857142</ele><time>2026-04-08T16:41:56.914Z</time></trkpt><trkpt lat="43.7754083" lon="11.260415"><ele>60.57142857142857</ele><time>2026-04-08T16:41:59.914Z</time></trkpt><trkpt lat="43.7753583" lon="11.2605117"><ele>60.71428571428571</ele><time>2026-04-08T16:42:02.913Z</time></trkpt><trkpt lat="43.77533" lon="11.260595"><ele>60.85714285714285</ele><time>2026-04-08T16:42:04.913Z</time></trkpt><trkpt lat="43.7753133" lon="11.26068"><ele>60.99999999999999</ele><time>2026-04-08T16:42:06.913Z</time></trkpt><trkpt lat="43.77529" lon="11.2607683"><ele>60.33333333333333</ele><time>2026-04-08T16:42:08.914Z</time></trkpt><trkpt lat="43.7752533" lon="11.2608983"><ele>59.666666666666664</ele><time>2026-04-08T16:42:11.913Z</time></trkpt><trkpt lat="43.7752133" lon="11.26099"><ele>59.0</ele><time>2026-04-08T16:42:13.913Z</time></trkpt><trkpt lat="43.775175" lon="11.2610883"><ele>58.33333333333333</ele><time>2026-04-08T16:42:15.913Z</time></trkpt><trkpt lat="43.7751383" lon="11.2611733"><ele>57.666666666666664</ele><time>2026-04-08T16:42:17.913Z</time></trkpt><trkpt lat="43.77507" lon="11.261265"><ele>57.0</ele><time>2026-04-08T16:42:20.913Z</time></trkpt><trkpt lat="43.775025" lon="11.2613333"><ele>56.5</ele><time>2026-04-08T16:42:22.913Z</time></trkpt><trkpt lat="43.7749767" lon="11.261435"><ele>56.0</ele><time>2026-04-08T16:42:25.913Z</time></trkpt><trkpt lat="43.7749217" lon="11.26152"><ele>55.5</ele><time>2026-04-08T16:42:28.914Z</time></trkpt><trkpt lat="43.7748767" lon="11.2615967"><ele>55.0</ele><time>2026-04-08T16:42:31.914Z</time></trkpt><trkpt lat="43.7748267" lon="11.2616533"><ele>54.5</ele><time>2026-04-08T16:42:33.914Z</time></trkpt><trkpt lat="43.77476" lon="11.2617367"><ele>54.0</ele><time>2026-04-08T16:42:36.913Z</time></trkpt><trkpt lat="43.7747067" lon="11.26183"><ele>54.0</ele><time>2026-04-08T16:42:39.914Z</time></trkpt><trkpt lat="43.7746683" lon="11.261915"><ele>54.0</ele><time>2026-04-08T16:42:42.913Z</time></trkpt><trkpt lat="43.7746383" lon="11.261995"><ele>54.0</ele><time>2026-04-08T16:42:45.913Z</time></trkpt><trkpt lat="43.7745883" lon="11.262085"><ele>54.0</ele><time>2026-04-08T16:42:49.913Z</time></trkpt><trkpt lat="43.77453" lon="11.2621517"><ele>54.0</ele><time>2026-04-08T16:42:52.913Z</time></trkpt><trkpt lat="43.7744533" lon="11.26221"><ele>54.0</ele><time>2026-04-08T16:42:55.913Z</time></trkpt><trkpt lat="43.7744483" lon="11.2623167"><ele>54.333333333333336</ele><time>2026-04-08T16:42:58.913Z</time></trkpt><trkpt lat="43.7745017" lon="11.262385"><ele>54.66666666666667</ele><time>2026-04-08T16:43:00.913Z</time></trkpt><trkpt lat="43.77456" lon="11.26247"><ele>55.0</ele><time>2026-04-08T16:43:02.913Z</time></trkpt><trkpt lat="43.7745733" lon="11.262565"><ele>55.333333333333336</ele><time>2026-04-08T16:43:05.914Z</time></trkpt><trkpt lat="43.7746383" lon="11.2624467"><ele>55.66666666666667</ele><time>2026-04-08T16:43:35.913Z</time></trkpt><trkpt lat="43.774565" lon="11.262425"><ele>56.0</ele><time>2026-04-08T16:51:17.912Z</time></trkpt><trkpt lat="43.7744837" lon="11.2624017"><ele>56.0</ele><time>2026-04-08T16:51:30.912Z</time></trkpt><trkpt lat="43.7744094" lon="11.2624579"><ele>55.99999999999999</ele><time>2026-04-08T16:51:34.912Z</time></trkpt><trkpt lat="43.7743503" lon="11.2624897"><ele>55.99999999999999</ele><time>2026-04-08T16:51:40.912Z</time></trkpt><trkpt lat="43.7743492" lon="11.2625987"><ele>56.0</ele><time>2026-04-08T16:51:53.913Z</time></trkpt><trkpt lat="43.7742806" lon="11.2627476"><ele>56.0</ele><time>2026-04-08T16:52:10.913Z</time></trkpt><trkpt lat="43.774251" lon="11.2629151"><ele>57.0</ele><time>2026-04-08T16:52:24.913Z</time></trkpt><trkpt lat="43.774176" lon="11.2630543"><ele>57.0</ele><time>2026-04-08T16:52:37.912Z</time></trkpt><trkpt lat="43.7741321" lon="11.2629645"><ele>57.0</ele><time>2026-04-08T16:53:01.616Z</time></trkpt></trkseg></trk></gpx>